SondeTracker

Meteorological Radiosondes Database

Operations

Sounding was ended - last measurement: 2022-12-07 14:03:29z

MAP
About Radiosonde

Number: U2420117

Launch Site: Camborne (GB)

Type: RS41

AUX: NO

Frequency: 403.30 MHz

Max Speed: 228 km/h at 35716 m

Average Speed: 56.14 km/h

Max Altitude: 35848 m

Average Ascent Speed: 4.98 m/s

Average Descent Speed: 12.35 m/s

Status: LOST

Status Changes
Launch Site Type AUX Frequency Status Finder Landing Point Description Changes made by
MHz LOST 0, 0 AUTO STATUS: Probably lost in the water [BOT]AUTO-STATUS - 2022-12-07 14:25:16z
APRS Statistics

Received Frames: 799

First Frame [UTC]: 2022-12-07 11:17:54z

Last Frame [UTC]: 2022-12-07 14:03:29z

Receivers: EA1JAY-15, F1IEE-RS, F4IPA, F4RTE-RS, G1GRW-15, G3HRZ, KERNO2-14, M1CTK-10, M1CTK-14, M7CWL-14

Flight Time: 02:45:35 h

Distance From First Measurement: 117.91 km

Nearest City: Saint-Pol-de-Léon (FR) [87.40 km]

Nearest Hunter: [0.00 km]

Ground Altitude: -123 m

Distance from QTH: 0.00 km

APRS Data
Receiver Number Date/Time [UTC] φ λ Course [°] Speed [km/h] Altitude [m] Description
KERNO2-14U24201172022-12-07 14:03:2949.4612-4.178123028452Clb=-5.5m/s t=4.0C h=74.1% 403.30MHz Type=RS41-SG batt=2.7V Details on http://radiosondy.info
KERNO2-14U24201172022-12-07 14:03:2149.4616-4.1775222228498Clb=-5.7m/s t=3.6C h=76.3% 403.30MHz Type=RS41-SG TxOff=7h42m Details on http://radiosondy.info
KERNO2-14U24201172022-12-07 14:03:1549.4619-4.1770822428531Clb=-6.2m/s t=3.2C h=78.8% 403.30MHz Type=RS41-SG Details on http://radiosondy.info
KERNO2-14U24201172022-12-07 14:03:0949.4622-4.1766621930566Clb=-5.5m/s t=2.9C h=80.1% 403.30MHz Type=RS41-SG batt=2.7V Details on http://radiosondy.info
KERNO2-14U24201172022-12-07 14:03:0349.4625-4.1762522126599Clb=-6.0m/s t=2.5C h=82.6% 403.30MHz Type=RS41-SG Details on http://radiosondy.info
KERNO2-14U24201172022-12-07 14:02:5749.4628-4.1758622326639Clb=-6.1m/s t=2.4C h=80.1% 403.30MHz Type=RS41-SG Details on http://radiosondy.info
KERNO2-14U24201172022-12-07 14:02:5149.4631-4.1754922222681Clb=-6.5m/s t=2.0C h=80.7% 403.30MHz Type=RS41-SG batt=2.7V Details on http://radiosondy.info
KERNO2-14U24201172022-12-07 14:02:4549.4634-4.1751822019722Clb=-7.3m/s t=1.7C h=81.5% 403.30MHz Type=RS41-SG Details on http://radiosondy.info
KERNO2-14U24201172022-12-07 14:02:3949.4636-4.1749421319764Clb=-6.7m/s t=1.4C h=80.4% 403.30MHz Type=RS41-SG Details on http://radiosondy.info
KERNO2-14U24201172022-12-07 14:02:3349.4638-4.1747121419803Clb=-6.4m/s t=1.2C h=77.5% 403.30MHz Type=RS41-SG TxOff=7h43m batt=2.6V Details on http://radiosondy.info
KERNO2-14U24201172022-12-07 14:02:2749.464-4.1744821717841Clb=-7.2m/s t=0.8C h=78.9% 403.30MHz Type=RS41-SG Details on http://radiosondy.info
KERNO2-14U24201172022-12-07 14:02:2149.4642-4.1742622315879Clb=-6.6m/s t=0.5C h=81.3% 403.30MHz Type=RS41-SG Details on http://radiosondy.info
KERNO2-14U24201172022-12-07 14:02:1549.4644-4.1740522315918Clb=-5.9m/s t=0.1C h=82.7% 403.30MHz Type=RS41-SG batt=2.7V Details on http://radiosondy.info
KERNO2-14U24201172022-12-07 14:02:0949.4646-4.1738522713956Clb=-6.4m/s t=-0.1C h=83.8% 403.30MHz Type=RS41-SG Details on http://radiosondy.info
KERNO2-14U24201172022-12-07 14:02:0349.4647-4.1736322811995Clb=-6.7m/s t=-0.3C h=84.7% 403.30MHz Type=RS41-SG Details on http://radiosondy.info
KERNO2-14U24201172022-12-07 14:01:5749.4648-4.17343220111034Clb=-6.4m/s t=-0.7C h=85.6% 403.30MHz Type=RS41-SG batt=2.7V Details on http://radiosondy.info
KERNO2-14U24201172022-12-07 14:01:5149.465-4.17326225131069Clb=-6.2m/s t=-1.0C h=86.5% 403.30MHz Type=RS41-SG Details on http://radiosondy.info
KERNO2-14U24201172022-12-07 14:01:4549.4651-4.1730922791105Clb=-6.3m/s t=-1.3C h=88.6% 403.30MHz Type=RS41-SG TxOff=7h44m Details on http://radiosondy.info
KERNO2-14U24201172022-12-07 14:01:3949.4652-4.1729720591140Clb=-6.0m/s t=-1.6C h=90.3% 403.30MHz Type=RS41-SG batt=2.7V Details on http://radiosondy.info
KERNO2-14U24201172022-12-07 14:01:3349.4653-4.1728820491175Clb=-6.0m/s t=-1.9C h=91.9% 403.30MHz Type=RS41-SG Details on http://radiosondy.info
KERNO2-14U24201172022-12-07 14:01:2749.4654-4.1727722471209Clb=-5.8m/s t=-2.1C h=92.4% 403.30MHz Type=RS41-SG Details on http://radiosondy.info
KERNO2-14U24201172022-12-07 14:01:2149.4655-4.1726819961245Clb=-5.9m/s t=-2.2C h=92.0% 403.30MHz Type=RS41-SG batt=2.7V Details on http://radiosondy.info
KERNO2-14U24201172022-12-07 14:01:1549.4655-4.1726221561278Clb=-5.9m/s t=-2.5C h=93.8% 403.30MHz Type=RS41-SG Details on http://radiosondy.info
KERNO2-14U24201172022-12-07 14:01:0949.4656-4.1725421941313Clb=-5.5m/s t=-2.7C h=94.8% 403.30MHz Type=RS41-SG Details on http://radiosondy.info
KERNO2-14U24201172022-12-07 14:01:0349.4656-4.172530121348Clb=-5.8m/s t=-3.2C h=97.8% 403.30MHz Type=RS41-SG batt=2.7V Details on http://radiosondy.info
KERNO2-14U24201172022-12-07 14:00:5749.4656-4.1724519521383Clb=-6.3m/s t=-3.1C h=94.6% 403.30MHz Type=RS41-SG TxOff=7h45m Details on http://radiosondy.info
KERNO2-14U24201172022-12-07 14:00:5149.4656-4.1724433421419Clb=-5.6m/s t=-3.5C h=97.4% 403.30MHz Type=RS41-SG Details on http://radiosondy.info
KERNO2-14U24201172022-12-07 14:00:4549.4656-4.1724434921455Clb=-6.6m/s t=-3.6C h=95.9% 403.30MHz Type=RS41-SG batt=2.7V Details on http://radiosondy.info
KERNO2-14U24201172022-12-07 14:00:3749.4656-4.1725110041504Clb=-6.3m/s t=-3.9C h=96.0% 403.30MHz Type=RS41-SG Details on http://radiosondy.info
KERNO2-14U24201172022-12-07 14:00:3149.4656-4.172618941541Clb=-5.8m/s t=-4.1C h=97.3% 403.30MHz Type=RS41-SG Details on http://radiosondy.info
KERNO2-14U24201172022-12-07 14:00:2549.4656-4.172718741577Clb=-5.9m/s t=-4.2C h=96.6% 403.30MHz Type=RS41-SG batt=2.6V Details on http://radiosondy.info
KERNO2-14U24201172022-12-07 14:00:1949.4656-4.1728211561614Clb=-6.3m/s t=-4.4C h=93.4% 403.30MHz Type=RS41-SG Details on http://radiosondy.info
KERNO2-14U24201172022-12-07 14:00:1549.4657-4.1729214171650Clb=-6.3m/s t=-3.8C h=69.6% 403.30MHz Type=RS41-SG Details on http://radiosondy.info
KERNO2-14U24201172022-12-07 14:00:0849.4657-4.1730214691684Clb=-6.0m/s t=-3.8C h=60.6% 403.30MHz Type=RS41-SG TxOff=7h46m batt=2.7V Details on http://radiosondy.info
KERNO2-14U24201172022-12-07 14:00:0149.4659-4.17308168111719Clb=-6.0m/s t=-3.7C h=44.1% 403.30MHz Type=RS41-SG Details on http://radiosondy.info
KERNO2-14U24201172022-12-07 13:59:5549.466-4.1731180131753Clb=-5.9m/s t=-4.0C h=41.1% 403.30MHz Type=RS41-SG Details on http://radiosondy.info
KERNO2-14U24201172022-12-07 13:59:4949.4662-4.17308188171787Clb=-5.8m/s t=-3.9C h=29.8% 403.30MHz Type=RS41-SG batt=2.6V Details on http://radiosondy.info
KERNO2-14U24201172022-12-07 13:59:4349.4665-4.173199191822Clb=-5.9m/s t=-2.9C h=13.6% 403.30MHz Type=RS41-SG Details on http://radiosondy.info
KERNO2-14U24201172022-12-07 13:59:3749.4667-4.17288201191855Clb=-5.0m/s t=-3.0C h=13.5% 403.30MHz Type=RS41-SG Details on http://radiosondy.info
KERNO2-14U24201172022-12-07 13:59:3149.467-4.17274199171885Clb=-5.6m/s t=-3.1C h=14.7% 403.30MHz Type=RS41-SG batt=2.6V Details on http://radiosondy.info
KERNO2-14U24201172022-12-07 13:59:2549.4672-4.17262199151919Clb=-5.3m/s t=-3.1C h=12.6% 403.30MHz Type=RS41-SG Details on http://radiosondy.info
KERNO2-14U24201172022-12-07 13:59:1949.4674-4.17253191131952Clb=-5.9m/s t=-3.4C h=10.5% 403.30MHz Type=RS41-SG TxOff=7h46m Details on http://radiosondy.info
KERNO2-14U24201172022-12-07 13:59:1349.4676-4.17247190111985Clb=-6.0m/s t=-3.4C h=12.2% 403.30MHz Type=RS41-SG batt=2.6V Details on http://radiosondy.info
KERNO2-14U24201172022-12-07 13:59:0549.4678-4.17245172112032Clb=-5.7m/s t=-3.3C h=17.8% 403.30MHz Type=RS41-SG Details on http://radiosondy.info
KERNO2-14U24201172022-12-07 13:58:5949.468-4.1724917292068Clb=-5.3m/s t=-3.5C h=21.4% 403.30MHz Type=RS41-SG Details on http://radiosondy.info
KERNO2-14U24201172022-12-07 13:58:5349.4681-4.17256162112102Clb=-5.4m/s t=-3.9C h=26.8% 403.30MHz Type=RS41-SG batt=2.6V Details on http://radiosondy.info
KERNO2-14U24201172022-12-07 13:58:4749.4683-4.1726316392136Clb=-5.7m/s t=-4.1C h=25.8% 403.30MHz Type=RS41-SG Details on http://radiosondy.info
KERNO2-14U24201172022-12-07 13:58:4149.4684-4.17271168112171Clb=-5.6m/s t=-4.4C h=27.7% 403.30MHz Type=RS41-SG Details on http://radiosondy.info
KERNO2-14U24201172022-12-07 13:58:3549.4686-4.17279159112206Clb=-6.0m/s t=-4.6C h=26.8% 403.30MHz Type=RS41-SG batt=2.6V Details on http://radiosondy.info
KERNO2-14U24201172022-12-07 13:58:2949.4688-4.17288152112242Clb=-5.8m/s t=-4.8C h=27.2% 403.30MHz Type=RS41-SG TxOff=7h47m Details on http://radiosondy.info
KERNO2-14U24201172022-12-07 13:58:2349.4689-4.1729616172276Clb=-5.7m/s t=-5.0C h=27.0% 403.30MHz Type=RS41-SG Details on http://radiosondy.info
KERNO2-14U24201172022-12-07 13:58:1749.469-4.1730315792309Clb=-5.8m/s t=-5.0C h=24.5% 403.30MHz Type=RS41-SG batt=2.6V Details on http://radiosondy.info
KERNO2-14U24201172022-12-07 13:58:1149.4692-4.17312159112343Clb=-5.2m/s t=-5.0C h=20.5% 403.30MHz Type=RS41-SG Details on http://radiosondy.info
KERNO2-14U24201172022-12-07 13:58:0549.4693-4.1731816792376Clb=-5.5m/s t=-4.8C h=14.7% 403.30MHz Type=RS41-SG Details on http://radiosondy.info
KERNO2-14U24201172022-12-07 13:57:5949.4694-4.17323165112409Clb=-5.5m/s t=-4.5C h=11.6% 403.30MHz Type=RS41-SG batt=2.5V Details on http://radiosondy.info
KERNO2-14U24201172022-12-07 13:57:5349.4696-4.17328174132442Clb=-5.3m/s t=-4.6C h=10.9% 403.30MHz Type=RS41-SG Details on http://radiosondy.info
KERNO2-14U24201172022-12-07 13:57:4749.4698-4.17329184152474Clb=-5.3m/s t=-4.8C h=10.9% 403.30MHz Type=RS41-SG Details on http://radiosondy.info
KERNO2-14U24201172022-12-07 13:57:4149.47-4.17328182192508Clb=-5.5m/s t=-5.2C h=11.1% 403.30MHz Type=RS41-SG TxOff=7h48m batt=2.6V Details on http://radiosondy.info
KERNO2-14U24201172022-12-07 13:57:3549.4703-4.17328179192542Clb=-5.7m/s t=-5.4C h=11.2% 403.30MHz Type=RS41-SG Details on http://radiosondy.info
KERNO2-14U24201172022-12-07 13:57:2949.4706-4.17329180222577Clb=-5.8m/s t=-5.6C h=11.1% 403.30MHz Type=RS41-SG Details on http://radiosondy.info
KERNO2-14U24201172022-12-07 13:57:2349.4709-4.17332176222612Clb=-5.2m/s t=-5.7C h=10.9% 403.30MHz Type=RS41-SG batt=2.6V Details on http://radiosondy.info
KERNO2-14U24201172022-12-07 13:57:1749.4712-4.17335177262644Clb=-5.5m/s t=-5.4C h=10.4% 403.30MHz Type=RS41-SG Details on http://radiosondy.info
KERNO2-14U24201172022-12-07 13:57:1149.4716-4.17341175262678Clb=-5.3m/s t=-5.2C h=9.2% 403.30MHz Type=RS41-SG Details on http://radiosondy.info
KERNO2-14U24201172022-12-07 13:57:0549.472-4.17346174262713Clb=-5.3m/s t=-5.1C h=7.4% 403.30MHz Type=RS41-SG batt=2.6V Details on http://radiosondy.info
KERNO2-14U24201172022-12-07 13:56:5949.4724-4.17351175242747Clb=-6.1m/s t=-5.3C h=9.4% 403.30MHz Type=RS41-SG Details on http://radiosondy.info
KERNO2-14U24201172022-12-07 13:56:5349.4728-4.17354176262782Clb=-5.6m/s t=-5.6C h=10.4% 403.30MHz Type=RS41-SG TxOff=7h49m Details on http://radiosondy.info
KERNO2-14U24201172022-12-07 13:56:4749.4732-4.1736174242815Clb=-5.5m/s t=-5.7C h=10.3% 403.30MHz Type=RS41-SG batt=2.6V Details on http://radiosondy.info
KERNO2-14U24201172022-12-07 13:56:4149.4735-4.17367174262849Clb=-5.4m/s t=-5.9C h=11.3% 403.30MHz Type=RS41-SG Details on http://radiosondy.info
KERNO2-14U24201172022-12-07 13:56:3549.4739-4.17375170242882Clb=-5.4m/s t=-6.0C h=11.4% 403.30MHz Type=RS41-SG Details on http://radiosondy.info
KERNO2-14U24201172022-12-07 13:56:2949.4743-4.17388166242917Clb=-5.6m/s t=-5.9C h=8.9% 403.30MHz Type=RS41-SG batt=2.6V Details on http://radiosondy.info
KERNO2-14U24201172022-12-07 13:56:2449.4746-4.17403161222953Clb=-6.0m/s t=-5.9C h=8.3% 403.30MHz Type=RS41-SG Details on http://radiosondy.info
KERNO2-14U24201172022-12-07 13:56:1749.4749-4.1742163192989Clb=-6.5m/s t=-6.3C h=8.4% 403.30MHz Type=RS41-SG Details on http://radiosondy.info
KERNO2-14U24201172022-12-07 13:56:0749.4754-4.17447158173049Clb=-5.5m/s t=-6.8C h=8.7% 403.30MHz Type=RS41-SG batt=2.6V Details on http://radiosondy.info
F4RTE-RSU24201172022-12-07 13:56:0049.4757-4.17469154153104Clb=-5.7m/s t=-7.3C h=9.0% p=-1.0hPa 403.301 MHz Type=RS41-SG Radiosonde auto_rx v1.5.8
KERNO2-14U24201172022-12-07 13:55:5149.476-4.17487161173149Clb=-6.0m/s t=-7.2C h=10.2% 403.30MHz Type=RS41-SG TxOff=7h50m Details on http://radiosondy.info
KERNO2-14U24201172022-12-07 13:55:3549.4767-4.1752166203250Clb=-5.7m/s t=-7.9C h=10.6% 403.30MHz Type=RS41-SG Details on http://radiosondy.info
F4RTE-RSU24201172022-12-07 13:55:3049.477-4.17531167173288Clb=-5.9m/s t=-8.2C h=11.1% p=-1.0hPa 403.301 MHz Type=RS41-SG Radiosonde auto_rx v1.5.8
KERNO2-14U24201172022-12-07 13:55:1949.4775-4.17547170203349Clb=-5.8m/s t=-8.7C h=11.1% 403.30MHz Type=RS41-SG batt=2.5V Details on http://radiosondy.info
KERNO2-14U24201172022-12-07 13:55:0349.4783-4.17564173173444Clb=-5.9m/s t=-9.5C h=11.5% 403.30MHz Type=RS41-SG Details on http://radiosondy.info
F4RTE-RSU24201172022-12-07 13:55:0049.4784-4.17566179193467Clb=-5.7m/s t=-9.6C h=11.4% p=-1.0hPa 403.301 MHz Type=RS41-SG Radiosonde auto_rx v1.5.8
KERNO2-14U24201172022-12-07 13:54:4749.479-4.17554197173544Clb=-6.3m/s t=-9.3C h=12.6% 403.30MHz Type=RS41-SG Details on http://radiosondy.info
KERNO2-14U24201172022-12-07 13:54:3149.4796-4.17521197203648Clb=-5.6m/s t=-9.9C h=13.8% 403.30MHz Type=RS41-SG batt=2.6V Details on http://radiosondy.info
F4RTE-RSU24201172022-12-07 13:54:3049.4798-4.17516197193667Clb=-5.6m/s t=-10.1C h=13.8% p=-1.0hPa 403.301 MHz Type=RS41-SG Radiosonde auto_rx v1.5.8
KERNO2-14U24201172022-12-07 13:54:1549.4804-4.17499183203746Clb=-6.1m/s t=-10.3C h=13.1% 403.30MHz Type=RS41-SG Details on http://radiosondy.info
F4RTE-RSU24201172022-12-07 13:54:0049.4813-4.17487180223849Clb=-7.1m/s t=-11.2C h=13.7% p=-1.0hPa 403.301 MHz Type=RS41-SG Radiosonde auto_rx v1.5.8
KERNO2-14U24201172022-12-07 13:53:5949.4813-4.17487181223849Clb=-7.0m/s t=-11.2C h=13.9% 403.30MHz Type=RS41-SG Details on http://radiosondy.info
KERNO2-14U24201172022-12-07 13:53:4349.4822-4.17476187203956Clb=-5.9m/s t=-12.1C h=17.3% 403.30MHz Type=RS41-SG TxOff=7h52m batt=2.5V Details on http://radiosondy.info
F4RTE-RSU24201172022-12-07 13:53:3049.4829-4.17465188204046Clb=-6.1m/s t=-13.0C h=18.3% p=-1.0hPa 403.301 MHz Type=RS41-SG Radiosonde auto_rx v1.5.8
KERNO2-14U24201172022-12-07 13:53:2749.483-4.17463190244058Clb=-6.0m/s t=-13.0C h=18.8% 403.30MHz Type=RS41-SG Details on http://radiosondy.info
KERNO2-14U24201172022-12-07 13:53:1149.4839-4.17448186264160Clb=-6.2m/s t=-14.0C h=18.9% 403.30MHz Type=RS41-SG Details on http://radiosondy.info
F4RTE-RSU24201172022-12-07 13:53:0049.4847-4.17433185284244Clb=-7.1m/s t=-14.8C h=17.8% p=-1.0hPa 403.301 MHz Type=RS41-SG Radiosonde auto_rx v1.5.8
KERNO2-14U24201172022-12-07 13:52:5549.485-4.17426193264274Clb=-6.1m/s t=-15.0C h=17.2% 403.30MHz Type=RS41-SG batt=2.6V Details on http://radiosondy.info
KERNO2-14U24201172022-12-07 13:52:3949.486-4.17393193264381Clb=-6.5m/s t=-15.8C h=20.3% 403.30MHz Type=RS41-SG Details on http://radiosondy.info
F4RTE-RSU24201172022-12-07 13:52:3049.4866-4.17374187244446Clb=-6.9m/s t=-16.5C h=27.4% p=-1.0hPa 403.301 MHz Type=RS41-SG Radiosonde auto_rx v1.5.8
KERNO2-14U24201172022-12-07 13:52:2349.487-4.17363188244486Clb=-6.2m/s t=-16.8C h=34.9% 403.30MHz Type=RS41-SG Details on http://radiosondy.info
KERNO2-14U24201172022-12-07 13:52:0749.488-4.1734191284596Clb=-7.2m/s t=-17.8C h=38.5% 403.30MHz Type=RS41-SG batt=2.5V Details on http://radiosondy.info
F4RTE-RSU24201172022-12-07 13:52:0049.4885-4.17328191264649Clb=-6.6m/s t=-18.3C h=40.1% p=-1.0hPa 403.301 MHz Type=RS41-SG Radiosonde auto_rx v1.5.8
KERNO2-14U24201172022-12-07 13:51:5149.489-4.17312190264703Clb=-6.5m/s t=-18.5C h=31.6% 403.30MHz Type=RS41-SG Details on http://radiosondy.info
KERNO2-14U24201172022-12-07 13:51:3549.4901-4.17272200224810Clb=-5.6m/s t=-19.1C h=44.7% 403.30MHz Type=RS41-SG TxOff=7h54m Details on http://radiosondy.info
F4RTE-RSU24201172022-12-07 13:51:3049.4905-4.17251202224865Clb=-6.8m/s t=-19.4C h=31.8% p=-1.0hPa 403.301 MHz Type=RS41-SG Radiosonde auto_rx v1.5.8
KERNO2-14U24201172022-12-07 13:51:1949.491-4.17228195224919Clb=-7.4m/s t=-19.8C h=34.5% 403.30MHz Type=RS41-SG batt=2.6V Details on http://radiosondy.info
KERNO2-14U24201172022-12-07 13:51:0349.4918-4.17192193225026Clb=-6.9m/s t=-20.8C h=38.4% 403.30MHz Type=RS41-SG Details on http://radiosondy.info
F4RTE-RSU24201172022-12-07 13:51:0049.4921-4.17186188195060Clb=-6.6m/s t=-21.1C h=37.2% p=-1.0hPa 403.301 MHz Type=RS41-SG Radiosonde auto_rx v1.5.8
KERNO2-14U24201172022-12-07 13:50:4749.4927-4.17183181245138Clb=-6.6m/s t=-21.5C h=37.3% 403.30MHz Type=RS41-SG Details on http://radiosondy.info
KERNO2-14U24201172022-12-07 13:50:3149.4936-4.17195175245250Clb=-6.6m/s t=-22.4C h=35.1% 403.30MHz Type=RS41-SG batt=2.6V Details on http://radiosondy.info
F4RTE-RSU24201172022-12-07 13:50:3049.4937-4.17198168225264Clb=-7.0m/s t=-22.6C h=33.1% p=-1.0hPa 403.301 MHz Type=RS41-SG Radiosonde auto_rx v1.5.8
KERNO2-14U24201172022-12-07 13:50:1549.4946-4.17221165245361Clb=-7.4m/s t=-23.4C h=17.7% 403.30MHz Type=RS41-SG Details on http://radiosondy.info
F4RTE-RSU24201172022-12-07 13:50:0049.4955-4.17252165245475Clb=-7.4m/s t=-24.4C h=20.4% p=-1.0hPa 403.301 MHz Type=RS41-SG Radiosonde auto_rx v1.5.8
KERNO2-14U24201172022-12-07 13:49:5949.4955-4.17252166225475Clb=-7.3m/s t=-24.4C h=21.2% 403.30MHz Type=RS41-SG Details on http://radiosondy.info
KERNO2-14U24201172022-12-07 13:49:4349.4963-4.17279171225592Clb=-7.1m/s t=-25.4C h=31.1% 403.30MHz Type=RS41-SG batt=2.5V Details on http://radiosondy.info
F4RTE-RSU24201172022-12-07 13:49:3049.4972-4.17295177225695Clb=-6.9m/s t=-26.4C h=44.3% p=-1.0hPa 403.301 MHz Type=RS41-SG Radiosonde auto_rx v1.5.8
KERNO2-14U24201172022-12-07 13:49:2749.4972-4.17295177245703Clb=-6.9m/s t=-26.4C h=46.4% 403.30MHz Type=RS41-SG TxOff=7h56m Details on http://radiosondy.info
KERNO2-14U24201172022-12-07 13:49:1149.4981-4.17312173195813Clb=-7.5m/s t=-27.2C h=44.0% 403.30MHz Type=RS41-SG Details on http://radiosondy.info
F4RTE-RSU24201172022-12-07 13:49:0049.4987-4.17326168195898Clb=-7.3m/s t=-27.8C h=37.9% p=-1.0hPa 403.301 MHz Type=RS41-SG Radiosonde auto_rx v1.5.8
KERNO2-14U24201172022-12-07 13:48:5549.4989-4.17331168175927Clb=-7.7m/s t=-27.9C h=37.2% 403.30MHz Type=RS41-SG batt=2.5V Details on http://radiosondy.info
KERNO2-14U24201172022-12-07 13:48:3949.4995-4.17351166206043Clb=-7.5m/s t=-28.2C h=32.3% 403.30MHz Type=RS41-SG Details on http://radiosondy.info
F4RTE-RSU24201172022-12-07 13:48:3049.5-4.17367168196116Clb=-7.3m/s t=-28.7C h=28.6% p=-1.0hPa 403.301 MHz Type=RS41-SG Radiosonde auto_rx v1.5.8
KERNO2-14U24201172022-12-07 13:48:2349.5003-4.17377173206161Clb=-7.3m/s t=-29.1C h=30.2% 403.30MHz Type=RS41-SG Details on http://radiosondy.info
KERNO2-14U24201172022-12-07 13:48:0749.5011-4.17404173196279Clb=-8.0m/s t=-30.0C h=30.2% 403.30MHz Type=RS41-SG batt=2.5V Details on http://radiosondy.info
F4RTE-RSU24201172022-12-07 13:48:0049.5015-4.17418160176340Clb=-8.0m/s t=-30.6C h=29.7% p=-1.0hPa 403.301 MHz Type=RS41-SG Radiosonde auto_rx v1.5.8
KERNO2-14U24201172022-12-07 13:47:5149.5018-4.17433168196400Clb=-7.2m/s t=-30.9C h=27.5% 403.30MHz Type=RS41-SG Details on http://radiosondy.info
KERNO2-14U24201172022-12-07 13:47:3549.5025-4.17451177196521Clb=-7.7m/s t=-31.9C h=34.8% 403.30MHz Type=RS41-SG Details on http://radiosondy.info
F4RTE-RSU24201172022-12-07 13:47:3049.5028-4.17456175176566Clb=-8.0m/s t=-32.4C h=35.2% p=-1.0hPa 403.301 MHz Type=RS41-SG Radiosonde auto_rx v1.5.8
KERNO2-14U24201172022-12-07 13:47:1949.5032-4.17464170206642Clb=-8.4m/s t=-33.1C h=38.0% 403.30MHz Type=RS41-SG TxOff=7h58m batt=2.6V Details on http://radiosondy.info
KERNO2-14U24201172022-12-07 13:47:0349.504-4.17479170226767Clb=-8.3m/s t=-34.2C h=38.1% 403.30MHz Type=RS41-SG Details on http://radiosondy.info
F4RTE-RSU24201172022-12-07 13:47:0049.5042-4.17483168206798Clb=-8.3m/s t=-34.5C h=36.6% p=-1.0hPa 403.301 MHz Type=RS41-SG Radiosonde auto_rx v1.5.8
KERNO2-14U24201172022-12-07 13:46:4749.5048-4.17498175266889Clb=-7.9m/s t=-35.2C h=40.6% 403.30MHz Type=RS41-SG Details on http://radiosondy.info
KERNO2-14U24201172022-12-07 13:46:3149.5058-4.17522170307012Clb=-8.5m/s t=-36.1C h=40.3% 403.30MHz Type=RS41-SG batt=2.6V Details on http://radiosondy.info
F4RTE-RSU24201172022-12-07 13:46:3049.5061-4.17527168267036Clb=-8.4m/s t=-36.3C h=38.3% p=-1.0hPa 403.301 MHz Type=RS41-SG Radiosonde auto_rx v1.5.8
KERNO2-14U24201172022-12-07 13:46:1549.507-4.17555172317136Clb=-8.0m/s t=-37.1C h=38.3% 403.30MHz Type=RS41-SG Details on http://radiosondy.info
F4RTE-RSU24201172022-12-07 13:46:0049.5083-4.17589169337266Clb=-8.7m/s t=-38.0C h=30.6% p=-1.0hPa 403.301 MHz Type=RS41-SG Radiosonde auto_rx v1.5.8
KERNO2-14U24201172022-12-07 13:45:5749.5084-4.17591172307275Clb=-8.3m/s t=-38.0C h=32.2% 403.30MHz Type=RS41-SG Details on http://radiosondy.info
KERNO2-14U24201172022-12-07 13:45:4149.5095-4.17622172247402Clb=-8.2m/s t=-38.8C h=26.9% 403.30MHz Type=RS41-SG batt=2.4V Details on http://radiosondy.info
F4RTE-RSU24201172022-12-07 13:45:3049.5104-4.17652165227520Clb=-8.5m/s t=-39.8C h=24.6% p=-1.0hPa 403.301 MHz Type=RS41-SG Radiosonde auto_rx v1.5.8
KERNO2-14U24201172022-12-07 13:45:2549.5104-4.17654168207528Clb=-8.4m/s t=-39.8C h=26.5% 403.30MHz Type=RS41-SG Details on http://radiosondy.info
KERNO2-14U24201172022-12-07 13:45:0949.5111-4.17689164177655Clb=-8.2m/s t=-40.9C h=27.4% 403.30MHz Type=RS41-SG Details on http://radiosondy.info
F4RTE-RSU24201172022-12-07 13:45:0049.5116-4.17714163157735Clb=-8.4m/s t=-41.6C h=25.3% p=-1.0hPa 403.301 MHz Type=RS41-SG Radiosonde auto_rx v1.5.8
KERNO2-14U24201172022-12-07 13:44:5349.5118-4.17729165207784Clb=-8.6m/s t=-42.0C h=27.9% 403.30MHz Type=RS41-SG TxOff=8h01m batt=2.4V Details on http://radiosondy.info
KERNO2-14U24201172022-12-07 13:44:3749.5125-4.17776156207912Clb=-8.5m/s t=-43.2C h=30.3% 403.30MHz Type=RS41-SG Details on http://radiosondy.info
F4RTE-RSU24201172022-12-07 13:44:3049.5129-4.17805150227976Clb=-8.9m/s t=-43.8C h=27.9% p=-1.0hPa 403.301 MHz Type=RS41-SG Radiosonde auto_rx v1.5.8
KERNO2-14U24201172022-12-07 13:44:2149.5133-4.17834157288040Clb=-8.2m/s t=-44.3C h=26.5% 403.30MHz Type=RS41-SG Details on http://radiosondy.info
KERNO2-14U24201172022-12-07 13:44:0549.5143-4.17909158378168Clb=-8.3m/s t=-44.5C h=19.8% 403.30MHz Type=RS41-SG batt=2.5V Details on http://radiosondy.info
F4RTE-RSU24201172022-12-07 13:44:0049.5148-4.17944154378216Clb=-8.6m/s t=-44.5C h=17.1% p=-1.0hPa 403.301 MHz Type=RS41-SG Radiosonde auto_rx v1.5.8
KERNO2-14U24201172022-12-07 13:43:4949.5156-4.17994160338296Clb=-8.7m/s t=-44.9C h=19.6% 403.30MHz Type=RS41-SG Details on http://radiosondy.info
KERNO2-14U24201172022-12-07 13:43:3349.5169-4.18074155308427Clb=-9.1m/s t=-45.3C h=18.9% 403.30MHz Type=RS41-SG Details on http://radiosondy.info
F4RTE-RSU24201172022-12-07 13:43:3049.5173-4.18098156338468Clb=-8.7m/s t=-45.7C h=16.5% p=-1.0hPa 403.301 MHz Type=RS41-SG Radiosonde auto_rx v1.5.8
KERNO2-14U24201172022-12-07 13:43:1749.518-4.18142158248558Clb=-8.9m/s t=-45.6C h=16.8% 403.30MHz Type=RS41-SG batt=2.5V Details on http://radiosondy.info
KERNO2-14U24201172022-12-07 13:43:0149.5189-4.18192163288693Clb=-9.0m/s t=-46.4C h=16.7% 403.30MHz Type=RS41-SG Details on http://radiosondy.info
F4RTE-RSU24201172022-12-07 13:43:0049.519-4.18198160268709Clb=-9.1m/s t=-46.6C h=14.5% p=-1.0hPa 403.301 MHz Type=RS41-SG Radiosonde auto_rx v1.5.8
KERNO2-14U24201172022-12-07 13:42:4549.5199-4.18239166318830Clb=-9.0m/s t=-47.5C h=16.9% 403.30MHz Type=RS41-SG Details on http://radiosondy.info
F4RTE-RSU24201172022-12-07 13:42:3049.521-4.18274171308968Clb=-9.4m/s t=-48.5C h=15.1% p=-1.0hPa 403.301 MHz Type=RS41-SG Radiosonde auto_rx v1.5.8
KERNO2-14U24201172022-12-07 13:42:2949.521-4.18274172318968Clb=-9.3m/s t=-48.4C h=17.7% 403.30MHz Type=RS41-SG TxOff=8h03m batt=2.5V Details on http://radiosondy.info
KERNO2-14U24201172022-12-07 13:42:1349.5223-4.1829183339109Clb=-9.0m/s t=-49.5C h=17.5% 403.30MHz Type=RS41-SG Details on http://radiosondy.info
F4RTE-RSU24201172022-12-07 13:42:0049.5234-4.18264191339233Clb=-10.1m/s t=-49.9C h=14.0% p=-1.0hPa 403.301 MHz Type=RS41-SG Radiosonde auto_rx v1.5.8
KERNO2-14U24201172022-12-07 13:41:5749.5235-4.18258192339252Clb=-10.1m/s t=-50.0C h=16.7% 403.30MHz Type=RS41-SG Details on http://radiosondy.info
KERNO2-14U24201172022-12-07 13:41:4149.5247-4.18212192309397Clb=-9.4m/s t=-50.8C h=14.6% 403.30MHz Type=RS41-SG batt=2.4V Details on http://radiosondy.info
F4RTE-RSU24201172022-12-07 13:41:3049.5256-4.18177194289507Clb=-10.3m/s t=-51.4C h=11.9% p=-1.0hPa 403.301 MHz Type=RS41-SG Radiosonde auto_rx v1.5.8
KERNO2-14U24201172022-12-07 13:41:2549.5258-4.18164201269544Clb=-9.5m/s t=-51.5C h=14.5% 403.30MHz Type=RS41-SG Details on http://radiosondy.info
KERNO2-14U24201172022-12-07 13:41:0949.5267-4.18119201199690Clb=-9.9m/s t=-52.2C h=14.6% 403.30MHz Type=RS41-SG Details on http://radiosondy.info
F4RTE-RSU24201172022-12-07 13:41:0049.5271-4.18103188199785Clb=-9.9m/s t=-52.3C h=11.8% p=-1.0hPa 403.301 MHz Type=RS41-SG Radiosonde auto_rx v1.5.8
KERNO2-14U24201172022-12-07 13:40:5349.5274-4.18095194199839Clb=-9.2m/s t=-52.7C h=15.2% 403.30MHz Type=RS41-SG batt=2.5V Details on http://radiosondy.info
KERNO2-14U24201172022-12-07 13:40:3749.5281-4.18083192209987Clb=-9.5m/s t=-53.9C h=16.6% 403.30MHz Type=RS41-SG Details on http://radiosondy.info
F4RTE-RSU24201172022-12-07 13:40:3049.5285-4.180751921910062Clb=-9.4m/s t=-54.4C h=13.7% p=-1.0hPa 403.301 MHz Type=RS41-SG Radiosonde auto_rx v1.5.8
KERNO2-14U24201172022-12-07 13:40:2149.5289-4.180661912010139Clb=-9.7m/s t=-55.0C h=17.6% 403.30MHz Type=RS41-SG Details on http://radiosondy.info
KERNO2-14U24201172022-12-07 13:40:0549.5297-4.180621782410293Clb=-10.1m/s t=-56.0C h=17.8% 403.30MHz Type=RS41-SG TxOff=8h06m batt=2.6V Details on http://radiosondy.info
F4RTE-RSU24201172022-12-07 13:40:0049.53-4.180681742210351Clb=-10.0m/s t=-56.5C h=14.2% p=-1.0hPa 403.301 MHz Type=RS41-SG Radiosonde auto_rx v1.5.8
KERNO2-14U24201172022-12-07 13:39:4949.5306-4.18091632610447Clb=-10.5m/s t=-57.0C h=17.6% 403.30MHz Type=RS41-SG Details on http://radiosondy.info
KERNO2-14U24201172022-12-07 13:39:3349.5315-4.181331683010603Clb=-10.6m/s t=-56.8C h=16.9% 403.30MHz Type=RS41-SG Details on http://radiosondy.info
F4RTE-RSU24201172022-12-07 13:39:3049.5317-4.181361822810641Clb=-9.6m/s t=-56.7C h=13.0% p=-1.0hPa 403.301 MHz Type=RS41-SG Radiosonde auto_rx v1.5.8
KERNO2-14U24201172022-12-07 13:39:1749.5326-4.181181923010755Clb=-10.0m/s t=-56.9C h=16.9% 403.30MHz Type=RS41-SG batt=2.4V Details on http://radiosondy.info
KERNO2-14U24201172022-12-07 13:39:0149.5337-4.180871881510903Clb=-9.2m/s t=-56.5C h=14.6% 403.30MHz Type=RS41-SG Details on http://radiosondy.info
F4RTE-RSU24201172022-12-07 13:39:0049.5337-4.180861841510922Clb=-9.7m/s t=-56.4C h=10.7% p=-1.0hPa 403.301 MHz Type=RS41-SG Radiosonde auto_rx v1.5.8
KERNO2-14U24201172022-12-07 13:38:4549.5342-4.181091451711062Clb=-10.4m/s t=-57.0C h=14.0% 403.30MHz Type=RS41-SG Details on http://radiosondy.info
F4RTE-RSU24201172022-12-07 13:38:3049.5346-4.181891342411228Clb=-10.8m/s t=-58.3C h=10.0% p=-1.0hPa 403.301 MHz Type=RS41-SG Radiosonde auto_rx v1.5.8
KERNO2-14U24201172022-12-07 13:38:2949.5346-4.181891352811228Clb=-10.8m/s t=-58.2C h=13.7% 403.30MHz Type=RS41-SG batt=2.5V Details on http://radiosondy.info
KERNO2-14U24201172022-12-07 13:38:1349.5353-4.183391173311397Clb=-10.8m/s t=-58.4C h=12.4% 403.30MHz Type=RS41-SG Details on http://radiosondy.info
F4RTE-RSU24201172022-12-07 13:38:0049.5359-4.184941283311547Clb=-10.8m/s t=-59.2C h=8.2% p=-1.0hPa 403.301 MHz Type=RS41-SG Radiosonde auto_rx v1.5.8
F1IEE-RSU24201172022-12-07 13:37:5949.536-4.185041293111557Clb=-11.4m/s t=-59.2C h=8.1% p=-1.0hPa 403.300 MHz Type=RS41-SG ser=U2420117 Radiosonde
KERNO2-14U24201172022-12-07 13:37:5749.536-4.185141303711568Clb=-11.1m/s t=-59.2C h=11.7% 403.30MHz Type=RS41-SG Details on http://radiosondy.info
KERNO2-14U24201172022-12-07 13:37:4149.5371-4.186751424611723Clb=-8.6m/s t=-60.3C h=11.0% 403.30MHz Type=RS41-SG TxOff=8h08m batt=2.5V Details on http://radiosondy.info
F4RTE-RSU24201172022-12-07 13:37:3049.5382-4.187891504411824Clb=-9.2m/s t=-60.4C h=6.6% p=-1.0hPa 403.301 MHz Type=RS41-SG Radiosonde auto_rx v1.5.8
F1IEE-RSU24201172022-12-07 13:37:2849.5383-4.187981524311833Clb=-8.6m/s t=-60.5C h=6.6% p=-1.0hPa 403.300 MHz Type=RS41-SG ser=U2420117 Radiosonde
KERNO2-14U24201172022-12-07 13:37:2549.5386-4.188191533111857Clb=-8.5m/s t=-60.5C h=10.5% 403.30MHz Type=RS41-SG Details on http://radiosondy.info
KERNO2-14U24201172022-12-07 13:37:0949.5395-4.189391213011991Clb=-8.2m/s t=-57.6C h=7.1% 403.30MHz Type=RS41-SG Details on http://radiosondy.info
F4RTE-RSU24201172022-12-07 13:37:0049.5398-4.190461053012077Clb=-9.0m/s t=-57.7C h=3.9% p=-1.0hPa 403.301 MHz Type=RS41-SG Radiosonde auto_rx v1.5.8
F1IEE-RSU24201172022-12-07 13:36:5749.5398-4.190691143112094Clb=-8.7m/s t=-57.6C h=3.9% p=-1.0hPa 403.300 MHz Type=RS41-SG ser=U2420117 Radiosonde
KERNO2-14U24201172022-12-07 13:36:5349.5399-4.191171113912130Clb=-8.6m/s t=-57.7C h=7.0% 403.30MHz Type=RS41-SG batt=2.5V Details on http://radiosondy.info
KERNO2-14U24201172022-12-07 13:36:3749.5407-4.193171334312266Clb=-9.0m/s t=-57.2C h=6.3% 403.30MHz Type=RS41-SG Details on http://radiosondy.info
F4RTE-RSU24201172022-12-07 13:36:3049.5413-4.194131344312335Clb=-9.7m/s t=-56.9C h=3.2% p=-1.0hPa 403.301 MHz Type=RS41-SG Radiosonde auto_rx v1.5.8
F1IEE-RSU24201172022-12-07 13:36:2649.5416-4.194541394112371Clb=-9.5m/s t=-57.1C h=3.1% p=-1.0hPa 403.300 MHz Type=RS41-SG ser=U2420117 Radiosonde
KERNO2-14U24201172022-12-07 13:36:2149.542-4.194921484112404Clb=-8.8m/s t=-57.3C h=6.0% 403.30MHz Type=RS41-SG Details on http://radiosondy.info
KERNO2-14U24201172022-12-07 13:36:0549.5433-4.196191493512542Clb=-8.8m/s t=-57.6C h=5.9% 403.30MHz Type=RS41-SG batt=2.6V Details on http://radiosondy.info
F4RTE-RSU24201172022-12-07 13:36:0049.5437-4.19661523312595Clb=-8.9m/s t=-57.6C h=2.8% p=-1.0hPa 403.301 MHz Type=RS41-SG Radiosonde auto_rx v1.5.8
F1IEE-RSU24201172022-12-07 13:35:5549.5441-4.196911483312639Clb=-9.4m/s t=-57.7C h=2.7% p=-1.0hPa 403.300 MHz Type=RS41-SG ser=U2420117 Radiosonde
KERNO2-14U24201172022-12-07 13:35:4949.5444-4.197241493712685Clb=-8.5m/s t=-57.9C h=5.6% 403.30MHz Type=RS41-SG Details on http://radiosondy.info
KERNO2-14U24201172022-12-07 13:35:3349.5457-4.198511484412828Clb=-9.1m/s t=-58.4C h=5.6% 403.30MHz Type=RS41-SG Details on http://radiosondy.info
F4RTE-RSU24201172022-12-07 13:35:3049.5461-4.198871474612864Clb=-8.8m/s t=-58.6C h=2.6% p=-1.0hPa 403.301 MHz Type=RS41-SG Radiosonde auto_rx v1.5.8
F1IEE-RSU24201172022-12-07 13:35:2449.5466-4.199391544412918Clb=-9.1m/s t=-57.6C h=2.4% p=-1.0hPa 403.300 MHz Type=RS41-SG ser=U2420117 Radiosonde
KERNO2-14U24201172022-12-07 13:35:1749.5472-4.199891483712973Clb=-9.2m/s t=-57.6C h=5.4% 403.30MHz Type=RS41-SG TxOff=8h10m batt=2.5V Details on http://radiosondy.info
KERNO2-14U24201172022-12-07 13:35:0149.5483-4.201221323113116Clb=-9.7m/s t=-56.1C h=4.6% 403.30MHz Type=RS41-SG Details on http://radiosondy.info
F4RTE-RSU24201172022-12-07 13:35:0049.5484-4.20141262813136Clb=-10.1m/s t=-56.3C h=2.0% p=-1.0hPa 403.301 MHz Type=RS41-SG Radiosonde auto_rx v1.5.8
F1IEE-RSU24201172022-12-07 13:34:5349.5487-4.202081223013201Clb=-10.1m/s t=-56.8C h=2.1% p=-1.0hPa 403.300 MHz Type=RS41-SG ser=U2420117 Radiosonde
KERNO2-14U24201172022-12-07 13:34:4549.549-4.202871173713268Clb=-10.1m/s t=-57.3C h=4.8% 403.30MHz Type=RS41-SG Details on http://radiosondy.info
F4RTE-RSU24201172022-12-07 13:34:3049.5497-4.204911203713422Clb=-10.0m/s t=-58.6C h=2.2% p=-1.0hPa 403.301 MHz Type=RS41-SG Radiosonde auto_rx v1.5.8
KERNO2-14U24201172022-12-07 13:34:2949.5497-4.20491213513423Clb=-10.0m/s t=-58.5C h=5.2% 403.30MHz Type=RS41-SG batt=2.5V Details on http://radiosondy.info
F1IEE-RSU24201172022-12-07 13:34:2249.5501-4.205921193313499Clb=-9.8m/s t=-59.0C h=2.2% p=-1.0hPa 403.300 MHz Type=RS41-SG ser=U2420117 Radiosonde
KERNO2-14U24201172022-12-07 13:34:1349.5503-4.206821102813576Clb=-10.1m/s t=-59.2C h=5.5% 403.30MHz Type=RS41-SG Details on http://radiosondy.info
F4RTE-RSU24201172022-12-07 13:34:0049.5506-4.208241083113709Clb=-9.8m/s t=-58.8C h=2.1% p=-1.0hPa 403.301 MHz Type=RS41-SG Radiosonde auto_rx v1.5.8
KERNO2-14U24201172022-12-07 13:33:5749.5506-4.208461083713727Clb=-9.8m/s t=-58.5C h=5.1% 403.30MHz Type=RS41-SG Details on http://radiosondy.info
F1IEE-RSU24201172022-12-07 13:33:5149.5508-4.20931183313795Clb=-9.9m/s t=-57.9C h=1.9% p=-1.0hPa 403.300 MHz Type=RS41-SG ser=U2420117 Radiosonde
KERNO2-14U24201172022-12-07 13:33:3949.5512-4.210771094113902Clb=-9.5m/s t=-58.3C h=4.9% 403.30MHz Type=RS41-SG batt=2.5V Details on http://radiosondy.info
F4RTE-RSU24201172022-12-07 13:33:3049.5515-4.212281064114000Clb=-9.6m/s t=-58.0C h=1.8% p=-1.0hPa 403.301 MHz Type=RS41-SG Radiosonde auto_rx v1.5.8
KERNO2-14U24201172022-12-07 13:33:2349.5517-4.213191174314057Clb=-10.4m/s t=-57.9C h=4.6% 403.30MHz Type=RS41-SG Details on http://radiosondy.info
F1IEE-RSU24201172022-12-07 13:33:1949.5519-4.21381184414098Clb=-10.7m/s t=-58.2C h=1.8% p=-1.0hPa 403.300 MHz Type=RS41-SG ser=U2420117 Radiosonde
F4IPAU24201172022-12-07 13:33:0849.5525-4.215371224414203Clb=-10.8m/s t=-58.9C h=1.9% p=-1.0hPa 403.300 MHz Type=RS41-SG ser=U2420117 Radiosonde
KERNO2-14U24201172022-12-07 13:33:0749.5525-4.215511244314214Clb=-10.1m/s t=-58.9C h=5.1% 403.30MHz Type=RS41-SG Details on http://radiosondy.info
F4RTE-RSU24201172022-12-07 13:33:0049.553-4.216611214314294Clb=-10.4m/s t=-58.8C h=1.9% p=-1.0hPa 403.301 MHz Type=RS41-SG Radiosonde auto_rx v1.5.8
KERNO2-14U24201172022-12-07 13:32:5149.5534-4.217751224114373Clb=-10.0m/s t=-58.2C h=4.8% 403.30MHz Type=RS41-SG TxOff=8h13m batt=2.5V Details on http://radiosondy.info
F1IEE-RSU24201172022-12-07 13:32:4849.5536-4.218171224114402Clb=-10.2m/s t=-58.1C h=1.7% p=-1.0hPa 403.300 MHz Type=RS41-SG ser=U2420117 Radiosonde
F4IPAU24201172022-12-07 13:32:3749.554-4.219661213714514Clb=-10.6m/s t=-58.2C h=1.8% p=-1.0hPa 403.300 MHz Type=RS41-SG ser=U2420117 Radiosonde
KERNO2-14U24201172022-12-07 13:32:3549.5541-4.21991203514535Clb=-10.4m/s t=-58.1C h=4.7% 403.30MHz Type=RS41-SG Details on http://radiosondy.info
F4RTE-RSU24201172022-12-07 13:32:3049.5544-4.220591293514594Clb=-9.6m/s t=-58.3C h=1.8% p=-1.0hPa 403.301 MHz Type=RS41-SG Radiosonde auto_rx v1.5.8
KERNO2-14U24201172022-12-07 13:32:1949.5549-4.221631323714690Clb=-10.4m/s t=-58.4C h=4.8% 403.30MHz Type=RS41-SG Details on http://radiosondy.info
F1IEE-RSU24201172022-12-07 13:32:1749.5551-4.221831363514708Clb=-10.7m/s t=-58.6C h=1.8% p=-1.0hPa 403.300 MHz Type=RS41-SG ser=U2420117 Radiosonde
F4IPAU24201172022-12-07 13:32:0649.5558-4.223071293314829Clb=-10.9m/s t=-273.0C h=-1.0% p=-1.0hPa 403.300 MHz Type=RS41-SG ser=U2420117 Radiosonde
KERNO2-14U24201172022-12-07 13:32:0349.5559-4.223281293714849Clb=-10.7m/s t=-59.0C h=5.0% 403.30MHz Type=RS41-SG batt=2.6V Details on http://radiosondy.info
F4RTE-RSU24201172022-12-07 13:32:0049.5561-4.223721253314889Clb=-10.9m/s t=-58.9C h=1.8% p=-1.0hPa 403.301 MHz Type=RS41-SG Radiosonde auto_rx v1.5.8
KERNO2-14U24201172022-12-07 13:31:4749.5567-4.225071313715015Clb=-11.0m/s t=-58.9C h=4.9% 403.30MHz Type=RS41-SG Details on http://radiosondy.info
F1IEE-RSU24201172022-12-07 13:31:4649.5568-4.225191273915025Clb=-11.2m/s t=-59.0C h=1.8% p=-1.0hPa 403.300 MHz Type=RS41-SG ser=U2420117 Radiosonde
F4IPAU24201172022-12-07 13:31:3549.5574-4.22641253715141Clb=-11.1m/s t=-273.0C h=-1.0% p=-1.0hPa 403.300 MHz Type=RS41 ser=U2420117 Radiosonde
KERNO2-14U24201172022-12-07 13:31:3149.5576-4.226861223515185Clb=-11.4m/s t=-58.9C h=4.8% 403.30MHz Type=RS41-SG Details on http://radiosondy.info
F4RTE-RSU24201172022-12-07 13:31:3049.5577-4.227091213715206Clb=-11.5m/s t=-59.0C h=1.7% p=-1.0hPa 403.301 MHz Type=RS41-SG Radiosonde auto_rx v1.5.8
F1IEE-RSU24201172022-12-07 13:31:1549.5582-4.228781083315357Clb=-11.1m/s t=-59.0C h=1.6% p=-1.0hPa 403.300 MHz Type=RS41-SG ser=U2420117 Radiosonde
F4RTE-RSU24201172022-12-07 13:31:0049.5585-4.230831073315528Clb=-11.2m/s t=-59.5C h=1.7% p=-1.0hPa 403.301 MHz Type=RS41-SG Radiosonde auto_rx v1.5.8
KERNO2-14U24201172022-12-07 13:30:5949.5585-4.230831083715528Clb=-11.2m/s t=-59.4C h=5.1% 403.30MHz Type=RS41-SG Details on http://radiosondy.info
F1IEE-RSU24201172022-12-07 13:30:4449.559-4.23281143715689Clb=-11.0m/s t=-59.1C h=1.7% p=-1.0hPa 403.300 MHz Type=RS41-SG ser=U2420117 Radiosonde
KERNO2-14U24201172022-12-07 13:30:4349.559-4.232941123915700Clb=-11.3m/s t=-58.9C h=4.9% 403.30MHz Type=RS41-SG Details on http://radiosondy.info
F4RTE-RSU24201172022-12-07 13:30:3049.5596-4.234741263515856Clb=-12.1m/s t=-58.2C h=1.5% p=-1.0hPa 403.301 MHz Type=RS41-SG Radiosonde auto_rx v1.5.8
KERNO2-14U24201172022-12-07 13:30:2749.5597-4.234971253715879Clb=-12.0m/s t=-58.3C h=4.6% 403.30MHz Type=RS41-SG TxOff=8h15m batt=2.6V Details on http://radiosondy.info
F1IEE-RSU24201172022-12-07 13:30:1349.5605-4.236551313916040Clb=-11.4m/s t=-58.4C h=1.5% p=-1.0hPa 403.300 MHz Type=RS41-SG ser=U2420117 Radiosonde
KERNO2-14U24201172022-12-07 13:30:1149.5606-4.236791284116062Clb=-11.3m/s t=-58.3C h=4.6% 403.30MHz Type=RS41-SG Details on http://radiosondy.info
F4IPAU24201172022-12-07 13:30:0249.5611-4.23791253916163Clb=-12.2m/s t=-58.4C h=1.5% p=-1.0hPa 403.300 MHz Type=RS41-SG ser=U2420117 Radiosonde
F4RTE-RSU24201172022-12-07 13:30:0049.5613-4.23831264116198Clb=-12.2m/s t=-58.3C h=1.5% p=-1.0hPa 403.301 MHz Type=RS41-SG Radiosonde auto_rx v1.5.8
KERNO2-14U24201172022-12-07 13:29:5549.5615-4.238851244616246Clb=-12.4m/s t=-58.2C h=4.6% 403.30MHz Type=RS41-SG Details on http://radiosondy.info
F1IEE-RSU24201172022-12-07 13:29:4249.5626-4.240451434416399Clb=-12.6m/s t=-58.1C h=1.4% p=-1.0hPa 403.300 MHz Type=RS41-SG ser=U2420117 Radiosonde
KERNO2-14U24201172022-12-07 13:29:3949.5629-4.240761463916436Clb=-12.6m/s t=-57.8C h=4.4% 403.30MHz Type=RS41-SG batt=2.6V Details on http://radiosondy.info
F4IPAU24201172022-12-07 13:29:3149.5635-4.241541423516533Clb=-12.3m/s t=-58.1C h=1.4% p=-1.0hPa 403.300 MHz Type=RS41-SG ser=U2420117 Radiosonde
F4RTE-RSU24201172022-12-07 13:29:3049.5637-4.24171463716557Clb=-12.1m/s t=-58.3C h=1.5% p=-1.0hPa 403.301 MHz Type=RS41-SG Radiosonde auto_rx v1.5.8
KERNO2-14U24201172022-12-07 13:29:2349.5641-4.242121523316627Clb=-11.7m/s t=-58.5C h=4.6% 403.30MHz Type=RS41-SG Details on http://radiosondy.info
F1IEE-RSU24201172022-12-07 13:29:1149.5649-4.242961403316766Clb=-11.6m/s t=-59.2C h=1.5% p=-1.0hPa 403.300 MHz Type=RS41-SG ser=U2420117 Radiosonde
KERNO2-14U24201172022-12-07 13:29:0749.5651-4.243331323316812Clb=-11.8m/s t=-59.2C h=4.7% 403.30MHz Type=RS41-SG Details on http://radiosondy.info
F4RTE-RSU24201172022-12-07 13:29:0049.5656-4.244091283116907Clb=-12.7m/s t=-59.6C h=1.5% p=-1.0hPa 403.301 MHz Type=RS41-SG Radiosonde auto_rx v1.5.8
KERNO2-14U24201172022-12-07 13:28:4949.5662-4.245141323917029Clb=-12.0m/s t=-59.7C h=4.9% 403.30MHz Type=RS41-SG batt=2.5V Details on http://radiosondy.info
F1IEE-RSU24201172022-12-07 13:28:4049.5667-4.246151353917135Clb=-12.5m/s t=-59.9C h=1.5% p=-1.0hPa 403.300 MHz Type=RS41-SG ser=U2420117 Radiosonde
KERNO2-14U24201172022-12-07 13:28:3349.5672-4.246961304117222Clb=-12.8m/s t=-59.9C h=4.9% 403.30MHz Type=RS41-SG Details on http://radiosondy.info
F4RTE-RSU24201172022-12-07 13:28:3049.5674-4.247451253917272Clb=-12.8m/s t=-59.4C h=1.4% p=-1.0hPa 403.301 MHz Type=RS41-SG Radiosonde auto_rx v1.5.8
F4IPAU24201172022-12-07 13:28:2949.5675-4.247571294117284Clb=-12.4m/s t=-59.2C h=1.4% p=-1.0hPa 403.300 MHz Type=RS41-SG ser=U2420117 Radiosonde
KERNO2-14U24201172022-12-07 13:28:1749.5681-4.249011264617416Clb=-12.8m/s t=-59.5C h=4.5% 403.30MHz Type=RS41-SG Details on http://radiosondy.info
F1IEE-RSU24201172022-12-07 13:28:0949.5687-4.25011294617516Clb=-13.3m/s t=-60.2C h=1.4% p=-1.0hPa 403.300 MHz Type=RS41-SG ser=U2420117 Radiosonde
KERNO2-14U24201172022-12-07 13:28:0149.5693-4.251271315217617Clb=-12.9m/s t=-60.9C h=5.1% 403.30MHz Type=RS41-SG TxOff=8h18m batt=2.6V Details on http://radiosondy.info
F4RTE-RSU24201172022-12-07 13:28:0049.5695-4.251581325217643Clb=-12.7m/s t=-61.0C h=1.5% p=-1.0hPa 403.301 MHz Type=RS41-SG Radiosonde auto_rx v1.5.8
F4IPAU24201172022-12-07 13:27:5849.5696-4.251731335617655Clb=-12.6m/s t=-60.8C h=1.5% p=-1.0hPa 403.300 MHz Type=RS41-SG ser=U2420117 Radiosonde
KERNO2-14U24201172022-12-07 13:27:4549.5709-4.253391494317817Clb=-11.9m/s t=-60.6C h=5.2% 403.30MHz Type=RS41-SG Details on http://radiosondy.info
F1IEE-RSU24201172022-12-07 13:27:3849.5716-4.254041484317904Clb=-13.2m/s t=-59.4C h=1.3% p=-1.0hPa 403.300 MHz Type=RS41-SG ser=U2420117 Radiosonde
F4RTE-RSU24201172022-12-07 13:27:3049.5724-4.25481433118023Clb=-13.7m/s t=-59.0C h=1.3% p=-1.0hPa 403.301 MHz Type=RS41-SG Radiosonde auto_rx v1.5.8
KERNO2-14U24201172022-12-07 13:27:2949.5724-4.25481443118023Clb=-13.6m/s t=-59.0C h=4.5% 403.30MHz Type=RS41-SG Details on http://radiosondy.info
F4IPAU24201172022-12-07 13:27:2749.5725-4.255041403318064Clb=-13.8m/s t=-59.2C h=1.3% p=-1.0hPa 403.300 MHz Type=RS41-SG ser=U2420117 Radiosonde
KERNO2-14U24201172022-12-07 13:27:1349.5732-4.256241204118236Clb=-13.4m/s t=-59.1C h=4.6% 403.30MHz Type=RS41-SG batt=2.5V Details on http://radiosondy.info
F1IEE-RSU24201172022-12-07 13:27:0749.5735-4.257011253918315Clb=-13.1m/s t=-59.0C h=1.2% p=-1.0hPa 403.300 MHz Type=RS41-SG ser=U2420117 Radiosonde
F4RTE-RSU24201172022-12-07 13:27:0049.574-4.258031333718422Clb=-14.4m/s t=-58.9C h=1.2% p=-1.0hPa 403.301 MHz Type=RS41-SG Radiosonde auto_rx v1.5.8
KERNO2-14U24201172022-12-07 13:26:5749.5742-4.258231363118450Clb=-14.4m/s t=-58.9C h=4.4% 403.30MHz Type=RS41-SG Details on http://radiosondy.info
F4IPAU24201172022-12-07 13:26:5649.5744-4.258511353318491Clb=-14.4m/s t=-59.2C h=1.2% p=-1.0hPa 403.300 MHz Type=RS41-SG ser=U2420117 Radiosonde
M7CWL-14U24201172022-12-07 13:26:5449.5744-4.258511366918491Clb=-14.3m/s t=-59.1C h=4.4% 403.30MHz Type=RS41-SG Details on http://radiosondy.info
KERNO2-14U24201172022-12-07 13:26:4149.5751-4.259521433018673Clb=-13.9m/s t=-59.5C h=4.5% 403.30MHz Type=RS41-SG Details on http://radiosondy.info
F1IEE-RSU24201172022-12-07 13:26:3649.5754-4.259871453018740Clb=-14.4m/s t=-59.8C h=1.3% p=-1.0hPa 403.300 MHz Type=RS41-SG ser=U2420117 Radiosonde
F4RTE-RSU24201172022-12-07 13:26:3049.5758-4.260411252818841Clb=-14.4m/s t=-59.5C h=1.2% p=-1.0hPa 403.301 MHz Type=RS41-SG Radiosonde auto_rx v1.5.8
KERNO2-14U24201172022-12-07 13:26:2549.5759-4.260781162818898Clb=-14.8m/s t=-59.7C h=4.6% 403.30MHz Type=RS41-SG batt=2.5V Details on http://radiosondy.info
KERNO2-14U24201172022-12-07 13:26:0949.5764-4.262341272419125Clb=-15.2m/s t=-60.1C h=4.7% 403.30MHz Type=RS41-SG Details on http://radiosondy.info
F1IEE-RSU24201172022-12-07 13:26:0549.5766-4.262681302219199Clb=-14.7m/s t=-60.3C h=1.3% p=-1.0hPa 403.300 MHz Type=RS41-SG ser=U2420117 Radiosonde
F4RTE-RSU24201172022-12-07 13:26:0049.5768-4.262981442419272Clb=-15.0m/s t=-60.3C h=1.3% p=-1.0hPa 403.301 MHz Type=RS41-SG Radiosonde auto_rx v1.5.8
F4IPAU24201172022-12-07 13:25:5449.5771-4.263311321919358Clb=-14.4m/s t=-60.6C h=1.3% p=-1.0hPa 403.300 MHz Type=RS41-SG ser=U2420117 Radiosonde
KERNO2-14U24201172022-12-07 13:25:5349.5771-4.263311332819358Clb=-14.3m/s t=-60.5C h=4.8% 403.30MHz Type=RS41-SG Details on http://radiosondy.info
KERNO2-14U24201172022-12-07 13:25:3749.5778-4.264531412819594Clb=-15.5m/s t=-60.6C h=4.8% 403.30MHz Type=RS41-SG TxOff=8h20m batt=2.6V Details on http://radiosondy.info
F1IEE-RSU24201172022-12-07 13:25:3449.5781-4.264811472819653Clb=-14.4m/s t=-60.5C h=1.3% p=-1.0hPa 403.300 MHz Type=RS41-SG ser=U2420117 Radiosonde
F4RTE-RSU24201172022-12-07 13:25:3049.5783-4.265051412419712Clb=-15.2m/s t=-60.7C h=1.3% p=-1.0hPa 403.301 MHz Type=RS41-SG Radiosonde auto_rx v1.5.8
F4IPAU24201172022-12-07 13:25:2349.5787-4.265441472219818Clb=-15.4m/s t=-61.0C h=1.4% p=-1.0hPa 403.300 MHz Type=RS41-SG ser=U2420117 Radiosonde
KERNO2-14U24201172022-12-07 13:25:2149.5787-4.265491453119833Clb=-15.8m/s t=-61.0C h=5.0% 403.30MHz Type=RS41-SG Details on http://radiosondy.info
KERNO2-14U24201172022-12-07 13:25:0549.5798-4.266611383520077Clb=-16.1m/s t=-60.6C h=4.9% 403.30MHz Type=RS41-SG Details on http://radiosondy.info
F1IEE-RSU24201172022-12-07 13:25:0349.58-4.266921313720123Clb=-15.4m/s t=-60.5C h=1.2% p=-1.0hPa 403.300 MHz Type=RS41-SG ser=U2420117 Radiosonde
F4RTE-RSU24201172022-12-07 13:25:0049.5802-4.267251253720168Clb=-15.3m/s t=-60.5C h=1.3% p=-1.0hPa 403.301 MHz Type=RS41-SG Radiosonde auto_rx v1.5.8
F4IPAU24201172022-12-07 13:24:5249.5806-4.268121293520294Clb=-16.6m/s t=-60.6C h=1.2% p=-1.0hPa 403.300 MHz Type=RS41-SG ser=U2420117 Radiosonde
KERNO2-14U24201172022-12-07 13:24:4949.5807-4.268321303020327Clb=-16.4m/s t=-60.7C h=4.7% 403.30MHz Type=RS41-SG batt=2.5V Details on http://radiosondy.info
KERNO2-14U24201172022-12-07 13:24:3349.5812-4.26984922820583Clb=-16.3m/s t=-62.0C h=4.9% 403.30MHz Type=RS41-SG Details on http://radiosondy.info
F1IEE-RSU24201172022-12-07 13:24:3249.5812-4.27004912820615Clb=-16.6m/s t=-62.3C h=1.4% p=-1.0hPa 403.300 MHz Type=RS41-SG ser=U2420117 Radiosonde
F4RTE-RSU24201172022-12-07 13:24:3049.5812-4.27025932620647Clb=-16.5m/s t=-62.6C h=1.4% p=-1.0hPa 403.301 MHz Type=RS41-SG Radiosonde auto_rx v1.5.8
M1CTK-10U24201172022-12-07 13:24:2349.5813-4.270941072420764Clb=-16.9m/s t=-62.9C h=1.4% p=-1.0hPa 403.301 MHz Type=RS41-SG ser=U2420117 Radiosonde auto_rx v1.5.9
F4IPAU24201172022-12-07 13:24:2149.5814-4.271361153120830Clb=-16.6m/s t=-63.1C h=1.4% p=-1.0hPa 403.300 MHz Type=RS41-SG ser=U2420117 Radiosonde
KERNO2-14U24201172022-12-07 13:24:1749.5814-4.271461183020846Clb=-16.1m/s t=-63.1C h=5.5% 403.30MHz Type=RS41-SG Details on http://radiosondy.info
KERNO2-14U24201172022-12-07 13:24:0149.5819-4.273091303121114Clb=-17.4m/s t=-63.4C h=5.6% 403.30MHz Type=RS41-SG batt=2.5V Details on http://radiosondy.info
F4RTE-RSU24201172022-12-07 13:24:0049.582-4.273281343321149Clb=-17.7m/s t=-63.2C h=1.4% p=-1.0hPa 403.301 MHz Type=RS41-SG Radiosonde auto_rx v1.5.8
M1CTK-10U24201172022-12-07 13:23:5349.5826-4.274091293121320Clb=-18.5m/s t=-63.0C h=1.4% p=-1.0hPa 403.301 MHz Type=RS41-SG ser=U2420117 Radiosonde auto_rx v1.5.9
F4IPAU24201172022-12-07 13:23:5049.5826-4.274091293121320Clb=-18.5m/s t=-63.0C h=1.4% p=-1.0hPa 403.300 MHz Type=RS41-SG ser=U2420117 Radiosonde
KERNO2-14U24201172022-12-07 13:23:4549.5828-4.274461373721390Clb=-17.5m/s t=-62.8C h=5.5% 403.30MHz Type=RS41-SG Details on http://radiosondy.info
F4RTE-RSU24201172022-12-07 13:23:3049.5836-4.276361284621672Clb=-17.1m/s t=-61.7C h=1.2% p=-1.0hPa 403.301 MHz Type=RS41-SG Radiosonde auto_rx v1.5.8
KERNO2-14U24201172022-12-07 13:23:2949.5836-4.276361294821672Clb=-17.1m/s t=-61.7C h=4.9% 403.30MHz Type=RS41-SG Details on http://radiosondy.info
M1CTK-10U24201172022-12-07 13:23:2349.5843-4.277371474821818Clb=-18.0m/s t=-61.8C h=1.2% p=-1.0hPa 403.301 MHz Type=RS41-SG ser=U2420117 Radiosonde auto_rx v1.5.9
F4IPAU24201172022-12-07 13:23:1849.5846-4.277681464621872Clb=-19.1m/s t=-62.0C h=1.2% p=-1.0hPa 403.300 MHz Type=RS41-SG ser=U2420117 Radiosonde
KERNO2-14U24201172022-12-07 13:23:1349.5851-4.278221494321965Clb=-18.4m/s t=-62.3C h=5.0% 403.30MHz Type=RS41-SG TxOff=8h22m batt=2.5V Details on http://radiosondy.info
F4RTE-RSU24201172022-12-07 13:23:0049.5863-4.279431403322227Clb=-18.9m/s t=-62.9C h=1.3% p=-1.0hPa 403.301 MHz Type=RS41-SG Radiosonde auto_rx v1.5.8
F1IEE-RSU24201172022-12-07 13:22:5949.5864-4.279521373722246Clb=-18.9m/s t=-62.9C h=1.3% p=-1.0hPa 403.300 MHz Type=RS41-SG ser=U2420117 Radiosonde
KERNO2-14U24201172022-12-07 13:22:5749.5864-4.279611473322265Clb=-18.2m/s t=-63.0C h=5.2% 403.30MHz Type=RS41-SG Details on http://radiosondy.info
M1CTK-10U24201172022-12-07 13:22:5349.5868-4.279981533522359Clb=-19.2m/s t=-62.9C h=1.3% p=-1.0hPa 403.301 MHz Type=RS41-SG ser=U2420117 Radiosonde auto_rx v1.5.9
F4IPAU24201172022-12-07 13:22:4749.5872-4.28021633022453Clb=-19.8m/s t=-62.8C h=1.3% p=-1.0hPa 403.300 MHz Type=RS41-SG ser=U2420117 Radiosonde
KERNO2-14U24201172022-12-07 13:22:4149.5876-4.280331693322568Clb=-20.3m/s t=-63.4C h=5.5% 403.30MHz Type=RS41-SG Details on http://radiosondy.info
F4RTE-RSU24201172022-12-07 13:22:3049.5885-4.28081573522804Clb=-19.5m/s t=-62.8C h=1.2% p=-1.0hPa 403.301 MHz Type=RS41-SG Radiosonde auto_rx v1.5.8
F1IEE-RSU24201172022-12-07 13:22:2749.5887-4.280921563922843Clb=-20.3m/s t=-62.9C h=1.2% p=-1.0hPa 403.300 MHz Type=RS41-SG ser=U2420117 Radiosonde
KERNO2-14U24201172022-12-07 13:22:2549.5889-4.281031583922883Clb=-20.3m/s t=-63.0C h=5.1% 403.30MHz Type=RS41-SG batt=2.6V Details on http://radiosondy.info
M1CTK-10U24201172022-12-07 13:22:2349.5891-4.281141603922923Clb=-19.8m/s t=-63.1C h=1.2% p=-1.0hPa 403.301 MHz Type=RS41-SG ser=U2420117 Radiosonde auto_rx v1.5.9
F4IPAU24201172022-12-07 13:22:1649.5897-4.28151563523064Clb=-19.8m/s t=-63.8C h=1.3% p=-1.0hPa 403.300 MHz Type=RS41-SG ser=U2420117 Radiosonde
KERNO2-14U24201172022-12-07 13:22:0949.5903-4.281821694423206Clb=-20.0m/s t=-64.0C h=5.6% 403.30MHz Type=RS41-SG Details on http://radiosondy.info
F4RTE-RSU24201172022-12-07 13:22:0049.5915-4.282131674123412Clb=-21.6m/s t=-63.3C h=1.2% p=-1.0hPa 403.301 MHz Type=RS41-SG Radiosonde auto_rx v1.5.8
F1IEE-RSU24201172022-12-07 13:21:5649.5918-4.282281644123475Clb=-20.5m/s t=-63.5C h=1.3% p=-1.0hPa 403.300 MHz Type=RS41-SG ser=U2420117 Radiosonde
M1CTK-10U24201172022-12-07 13:21:5349.5921-4.282431593723538Clb=-21.8m/s t=-63.7C h=1.3% p=-1.0hPa 403.301 MHz Type=RS41-SG ser=U2420117 Radiosonde auto_rx v1.5.9
KERNO2-14U24201172022-12-07 13:21:5149.5923-4.282551564123581Clb=-21.5m/s t=-63.6C h=5.6% 403.30MHz Type=RS41-SG Details on http://radiosondy.info
F4IPAU24201172022-12-07 13:21:4549.5927-4.283091283923709Clb=-21.9m/s t=-63.6C h=1.3% p=-1.0hPa 403.300 MHz Type=RS41-SG ser=U2420117 Radiosonde
KERNO2-14U24201172022-12-07 13:21:3549.5932-4.284621075423927Clb=-22.0m/s t=-63.0C h=5.1% 403.30MHz Type=RS41-SG batt=2.5V Details on http://radiosondy.info
F4RTE-RSU24201172022-12-07 13:21:3049.5934-4.285811085624059Clb=-22.0m/s t=-63.5C h=1.3% p=-1.0hPa 403.301 MHz Type=RS41-SG Radiosonde auto_rx v1.5.8
F1IEE-RSU24201172022-12-07 13:21:2549.5936-4.286591115224147Clb=-22.5m/s t=-63.5C h=1.2% p=-1.0hPa 403.300 MHz Type=RS41-SG ser=U2420117 Radiosonde
M1CTK-10U24201172022-12-07 13:21:2349.5937-4.286961185024192Clb=-22.1m/s t=-63.5C h=1.3% p=-1.0hPa 403.301 MHz Type=RS41-SG ser=U2420117 Radiosonde auto_rx v1.5.9
KERNO2-14U24201172022-12-07 13:21:1949.594-4.28761265224282Clb=-23.3m/s t=-63.7C h=5.4% 403.30MHz Type=RS41-SG Details on http://radiosondy.info
F4IPAU24201172022-12-07 13:21:1449.5945-4.28841395024416Clb=-22.6m/s t=-63.0C h=1.1% p=-1.0hPa 403.300 MHz Type=RS41-SG ser=U2420117 Radiosonde
KERNO2-14U24201172022-12-07 13:21:0349.5955-4.289641425624643Clb=-22.9m/s t=-63.6C h=5.0% 403.30MHz Type=RS41-SG Details on http://radiosondy.info
F4RTE-RSU24201172022-12-07 13:21:0049.5959-4.290131365224734Clb=-23.5m/s t=-64.1C h=1.2% p=-1.0hPa 403.301 MHz Type=RS41-SG Radiosonde auto_rx v1.5.8
F1IEE-RSU24201172022-12-07 13:20:5449.5964-4.290841315724852Clb=-23.8m/s t=-64.8C h=1.2% p=-1.0hPa 403.300 MHz Type=RS41-SG ser=U2420117 Radiosonde
M1CTK-10U24201172022-12-07 13:20:5349.5965-4.2911355724876Clb=-23.4m/s t=-64.9C h=1.2% p=-1.0hPa 403.301 MHz Type=RS41-SG ser=U2420117 Radiosonde auto_rx v1.5.9
KERNO2-14U24201172022-12-07 13:20:4749.5971-4.292051327825017Clb=-22.4m/s t=-65.2C h=5.7% 403.30MHz Type=RS41-SG TxOff=8h25m batt=2.6V Details on http://radiosondy.info
F4IPAU24201172022-12-07 13:20:4349.5976-4.29291307625112Clb=-24.1m/s t=-65.3C h=1.3% p=-1.0hPa 403.300 MHz Type=RS41-SG ser=U2420117 Radiosonde
KERNO2-14U24201172022-12-07 13:20:3349.5993-4.295491368325401Clb=-25.4m/s t=-65.6C h=5.8% 403.30MHz Type=RS41-SG Details on http://radiosondy.info
F4RTE-RSU24201172022-12-07 13:20:3049.5996-4.29591387425450Clb=-25.2m/s t=-65.8C h=1.4% p=-1.0hPa 403.301 MHz Type=RS41-SG Radiosonde auto_rx v1.5.8
M1CTK-10U24201172022-12-07 13:20:2349.6007-4.297321439125625Clb=-25.3m/s t=-65.5C h=1.3% p=-1.0hPa 403.301 MHz Type=RS41-SG ser=U2420117 Radiosonde auto_rx v1.5.9
KERNO2-14U24201172022-12-07 13:20:1549.6019-4.298751468525800Clb=-24.9m/s t=-65.1C h=5.5% 403.30MHz Type=RS41-SG Details on http://radiosondy.info
F4IPAU24201172022-12-07 13:20:1249.6027-4.299491518725903Clb=-25.7m/s t=-65.5C h=1.3% p=-1.0hPa 403.300 MHz Type=RS41-SG ser=U2420117 Radiosonde
KERNO2-14U24201172022-12-07 13:19:5949.6049-4.301021605926205Clb=-24.2m/s t=-65.8C h=5.8% 403.30MHz Type=RS41-SG batt=2.6V Details on http://radiosondy.info
M1CTK-10U24201172022-12-07 13:19:5349.6058-4.301691435226379Clb=-25.3m/s t=-66.7C h=1.4% p=-1.0hPa 403.301 MHz Type=RS41-SG ser=U2420117 Radiosonde auto_rx v1.5.9
F1IEE-RSU24201172022-12-07 13:19:5249.6058-4.301691435226379Clb=-25.3m/s t=-66.7C h=1.4% p=-1.0hPa 403.300 MHz Type=RS41-SG ser=U2420117 Radiosonde
KERNO2-14U24201172022-12-07 13:19:4349.6068-4.303011357426615Clb=-25.9m/s t=-65.8C h=5.7% 403.30MHz Type=RS41-SG Details on http://radiosondy.info
F4IPAU24201172022-12-07 13:19:4149.607-4.303361326726667Clb=-28.4m/s t=-65.9C h=1.3% p=-1.0hPa 403.300 MHz Type=RS41-SG ser=U2420117 Radiosonde
G3HRZU24201172022-12-07 13:19:3249.6083-4.305511337826938Clb=-27.0m/s t=-66.6C h=-1.0% p=-1.0hPa 403.301 MHz Type=RS41-SG ser=U2420117 Radiosonde
F4RTE-RSU24201172022-12-07 13:19:3049.6085-4.305921377626987Clb=-25.7m/s t=-66.3C h=1.3% p=-1.0hPa 403.301 MHz Type=RS41-SG Radiosonde auto_rx v1.5.8
KERNO2-14U24201172022-12-07 13:19:2749.6088-4.306291417027039Clb=-26.1m/s t=-66.5C h=5.8% 403.30MHz Type=RS41-SG Details on http://radiosondy.info
M1CTK-10U24201172022-12-07 13:19:2349.6095-4.307121436927185Clb=-32.4m/s t=-66.5C h=1.3% p=-1.0hPa 403.301 MHz Type=RS41-SG ser=U2420117 Radiosonde auto_rx v1.5.9
F1IEE-RSU24201172022-12-07 13:19:2149.6096-4.307281437027217Clb=-31.2m/s t=-66.4C h=-1.0% p=-1.0hPa 403.300 MHz Type=RS41-SG ser=U2420117 Radiosonde
KERNO2-14U24201172022-12-07 13:19:1149.611-4.308841467227462Clb=-23.0m/s t=-67.1C h=6.0% 403.30MHz Type=RS41-SG batt=2.6V Details on http://radiosondy.info
F4IPAU24201172022-12-07 13:19:1049.6113-4.309141456927507Clb=-23.2m/s t=-67.4C h=1.4% p=-1.0hPa 403.300 MHz Type=RS41-SG ser=U2420117 Radiosonde
G1GRW-15U24201172022-12-07 13:19:0849.612-4.309951386727623Clb=-23.3m/s t=-67.7C h=1.4% p=-1.0hPa 403.301 MHz Type=RS41-SG ser=U2420117 Radiosonde
G3HRZU24201172022-12-07 13:19:0149.6125-4.310681397627720Clb=-24.8m/s t=-273.0C h=-1.0% p=-1.0hPa 403.301 MHz Type=RS41-SG ser=U2420117 Radiosonde
F4RTE-RSU24201172022-12-07 13:19:0049.6127-4.310871417627744Clb=-23.8m/s t=-67.8C h=1.4% p=-1.0hPa 403.301 MHz Type=RS41-SG Radiosonde auto_rx v1.5.8
KERNO2-14U24201172022-12-07 13:18:5549.6133-4.311641377627841Clb=-24.0m/s t=-67.8C h=6.5% 403.30MHz Type=RS41-SG Details on http://radiosondy.info
M1CTK-10U24201172022-12-07 13:18:5349.6137-4.31241326927936Clb=-23.9m/s t=-68.1C h=1.5% p=-1.0hPa 403.301 MHz Type=RS41-SG ser=U2420117 Radiosonde auto_rx v1.5.9
F1IEE-RSU24201172022-12-07 13:18:5049.6142-4.313131397228028Clb=-22.6m/s t=-68.0C h=-1.0% p=-1.0hPa 403.300 MHz Type=RS41-SG ser=U2420117 Radiosonde
F4IPAU24201172022-12-07 13:18:3949.6157-4.314491519128223Clb=-26.0m/s t=-67.4C h=-1.0% p=-1.0hPa 403.300 MHz Type=RS41-SG ser=U2420117 Radiosonde
G1GRW-15U24201172022-12-07 13:18:3249.617-4.315481598328402Clb=-26.4m/s t=-67.0C h=1.3% p=-1.0hPa 403.301 MHz Type=RS41-SG ser=U2420117 Radiosonde
F4RTE-RSU24201172022-12-07 13:18:3049.6176-4.315861568128479Clb=-26.5m/s t=-67.3C h=1.4% p=-1.0hPa 403.301 MHz Type=RS41-SG Radiosonde auto_rx v1.5.8
G3HRZU24201172022-12-07 13:18:2949.6176-4.315861568128479Clb=-26.5m/s t=-273.0C h=-1.0% p=-1.0hPa 403.301 MHz Type=RS41-SG ser=U2420117 Radiosonde
KERNO2-14U24201172022-12-07 13:18:2349.6187-4.316811488328635Clb=-25.6m/s t=-67.5C h=6.3% 403.30MHz Type=RS41-SG TxOff=8h27m batt=2.6V Details on http://radiosondy.info
F4IPAU24201172022-12-07 13:18:0849.6211-4.319821348529009Clb=-27.7m/s t=-67.3C h=-1.0% p=-1.0hPa 403.300 MHz Type=RS41-SG ser=U2420117 Radiosonde
KERNO2-14U24201172022-12-07 13:18:0749.6212-4.320051369429036Clb=-27.6m/s t=-67.1C h=6.7% 403.30MHz Type=RS41-SG Details on http://radiosondy.info
F4RTE-RSU24201172022-12-07 13:18:0049.6224-4.322031259429277Clb=-35.4m/s t=-66.3C h=1.4% p=-1.0hPa 403.301 MHz Type=RS41-SG Radiosonde auto_rx v1.5.8
G1GRW-15U24201172022-12-07 13:17:5649.6229-4.3233411710429393Clb=-26.0m/s t=-66.1C h=1.3% p=-1.0hPa 403.301 MHz Type=RS41-SG ser=U2420117 Radiosonde
KERNO2-14U24201172022-12-07 13:17:5149.6233-4.3248611310729495Clb=-26.0m/s t=-65.1C h=5.7% 403.30MHz Type=RS41-SG Details on http://radiosondy.info
F4IPAU24201172022-12-07 13:17:3749.6254-4.3296612910929999Clb=-45.8m/s t=-65.8C h=-1.0% p=-1.0hPa 403.300 MHz Type=RS41-SG ser=U2420117 Radiosonde
KERNO2-14U24201172022-12-07 13:17:3549.6257-4.3302912810030091Clb=-47.2m/s t=-65.5C h=5.2% 403.30MHz Type=RS41-SG batt=2.6V Details on http://radiosondy.info
F4RTE-RSU24201172022-12-07 13:17:3049.6265-4.332111199430371Clb=-46.8m/s t=-66.5C h=1.2% p=-1.0hPa 403.301 MHz Type=RS41-SG Radiosonde auto_rx v1.5.8
M1CTK-10U24201172022-12-07 13:17:2349.6273-4.335810611330818Clb=-41.6m/s t=-67.5C h=1.4% p=-1.0hPa 403.301 MHz Type=RS41-SG ser=U2420117 Radiosonde auto_rx v1.5.9
G1GRW-15U24201172022-12-07 13:17:2049.6273-4.335810611330818Clb=-41.6m/s t=-67.5C h=1.4% p=-1.0hPa 403.301 MHz Type=RS41-SG ser=U2420117 Radiosonde
KERNO2-14U24201172022-12-07 13:17:1949.6273-4.3357910712430818Clb=-41.6m/s t=-67.4C h=6.4% 403.30MHz Type=RS41-SG Details on http://radiosondy.info
F4IPAU24201172022-12-07 13:17:0649.6287-4.3416311212031391Clb=-39.4m/s t=-67.3C h=-1.0% p=-1.0hPa 403.300 MHz Type=RS41-SG ser=U2420117 Radiosonde
KERNO2-14U24201172022-12-07 13:17:0449.629-4.3429111313731501Clb=-36.8m/s t=-67.6C h=6.5% 403.30MHz Type=RS41-SG Details on http://radiosondy.info
F4RTE-RSU24201172022-12-07 13:17:0049.6295-4.3447611013331671Clb=-51.6m/s t=-67.7C h=-1.0% p=-1.0hPa 403.301 MHz Type=RS41-SG Radiosonde auto_rx v1.5.8
M1CTK-10U24201172022-12-07 13:16:5449.6302-4.3482610814332057Clb=-58.4m/s t=-67.5C h=1.5% p=-1.0hPa 403.301 MHz Type=RS41-SG ser=U2420117 Radiosonde auto_rx v1.5.9
KERNO2-14U24201172022-12-07 13:16:4749.6309-4.3509111215032341Clb=-53.4m/s t=-67.8C h=6.9% 403.30MHz Type=RS41-SG batt=2.5V Details on http://radiosondy.info
G1GRW-15U24201172022-12-07 13:16:4449.6314-4.35311414432554Clb=-54.1m/s t=-67.5C h=1.5% p=-1.0hPa 403.301 MHz Type=RS41-SG ser=U2420117 Radiosonde
F4IPAU24201172022-12-07 13:16:3549.6326-4.3571511015632985Clb=-54.6m/s t=-273.0C h=-1.0% p=-1.0hPa 403.300 MHz Type=RS41-SG ser=U2420117 Radiosonde
KERNO2-14U24201172022-12-07 13:16:3249.6331-4.3594510816933202Clb=-54.3m/s t=-67.8C h=7.9% 403.30MHz Type=RS41-SG Details on http://radiosondy.info
F4RTE-RSU24201172022-12-07 13:16:3049.6334-4.3606210716133312Clb=-55.5m/s t=-273.0C h=-1.0% p=-1.0hPa 403.301 MHz Type=RS41-SG Radiosonde auto_rx v1.5.8
KERNO2-14U24201172022-12-07 13:16:1549.6353-4.3691711518734070Clb=-54.5m/s t=-64.1C h=6.5% 403.30MHz Type=RS41-SG Details on http://radiosondy.info
G1GRW-15U24201172022-12-07 13:16:0849.6369-4.3744411220634505Clb=-53.5m/s t=-63.0C h=-1.0% p=-1.0hPa 403.301 MHz Type=RS41-SG ser=U2420117 Radiosonde
F4IPAU24201172022-12-07 13:16:0449.6423-4.3962310819635848Clb=-1.0m/s t=-273.0C h=-1.0% p=-1.0hPa 403.300 MHz Type=RS41 ser=U2420117 Radiosonde
KERNO2-14U24201172022-12-07 13:15:5949.6385-4.3795611718534931Clb=-54.1m/s t=-59.5C h=4.6% 403.30MHz Type=RS41-SG TxPastBurst=8h30m batt=2.5V Details on http://radiosondy.info
M1CTK-10U24201172022-12-07 13:15:5349.64-4.3848411419435360Clb=-51.3m/s t=-58.9C h=0.7% p=-1.0hPa 403.301 MHz Type=RS41-SG ser=U2420117 Radiosonde auto_rx v1.5.9
F1IEE-RSU24201172022-12-07 13:15:4449.6423-4.3962310819635848Clb=-1.0m/s t=-59.4C h=-1.0% p=-1.0hPa 403.300 MHz Type=RS41-SG ser=U2420117 Radiosonde
KERNO2-14U24201172022-12-07 13:15:4349.6414-4.3899910318135765Clb=-48.5m/s t=-59.0C h=4.2% 403.30MHz Type=RS41-SG Details on http://radiosondy.info
F4IPAU24201172022-12-07 13:15:3349.6426-4.3975311817235842Clb=7.1m/s t=-273.0C h=-1.0% p=-1.0hPa 403.300 MHz Type=RS41 ser=U2420117 Radiosonde
G1GRW-15U24201172022-12-07 13:15:3249.6433-4.3989713715435817Clb=4.6m/s t=-59.5C h=-1.0% p=-1.0hPa 403.301 MHz Type=RS41-SG ser=U2420117 Radiosonde
F4RTE-RSU24201172022-12-07 13:15:3049.6436-4.3993913415935815Clb=-0.8m/s t=-273.0C h=-1.0% p=-1.0hPa 403.301 MHz Type=RS41 Radiosonde auto_rx v1.5.8
KERNO2-14U24201172022-12-07 13:15:2849.6439-4.3998612918735816Clb=-1.4m/s t=-59.5C h=4.4% 403.30MHz Type=RS41-SG Details on http://radiosondy.info
M1CTK-10U24201172022-12-07 13:15:2449.6451-4.404110522235782Clb=-0.5m/s t=-59.7C h=0.8% p=-1.0hPa 403.301 MHz Type=RS41-SG ser=U2420117 Radiosonde auto_rx v1.5.9
F1IEE-RSU24201172022-12-07 13:15:1249.6482-4.4127610422835716Clb=2.4m/s t=-59.4C h=-1.0% p=-1.0hPa 403.300 MHz Type=RS41-SG ser=U2420117 Radiosonde
F4RTE-RSU24201172022-12-07 13:15:0049.6512-4.4230410520935648Clb=-1.4m/s t=-273.0C h=-1.0% p=-1.0hPa 403.301 MHz Type=RS41 Radiosonde auto_rx v1.5.8
KERNO2-14U24201172022-12-07 13:14:5649.6507-4.419811018735670Clb=10.3m/s t=-59.8C h=4.4% 403.30MHz Type=RS41-SG Details on http://radiosondy.info
M1CTK-10U24201172022-12-07 13:14:5349.6515-4.4244511318135645Clb=4.6m/s t=-59.9C h=0.8% p=-1.0hPa 403.301 MHz Type=RS41-SG ser=U2420117 Radiosonde auto_rx v1.5.9
KERNO2-14U24201172022-12-07 13:14:4049.6536-4.430310619435588Clb=7.4m/s t=-60.0C h=4.5% 403.30MHz Type=RS41-SG Details on http://radiosondy.info
KERNO2-14U24201172022-12-07 13:14:2449.6566-4.4412410819635516Clb=0.4m/s t=-59.9C h=4.5% 403.30MHz Type=RS41-SG batt=2.5V Details on http://radiosondy.info
M1CTK-10U24201172022-12-07 13:14:2349.6574-4.4440712117435497Clb=8.9m/s t=-59.8C h=0.8% p=-1.0hPa 403.301 MHz Type=RS41-SG ser=U2420117 Radiosonde auto_rx v1.5.9
G1GRW-15U24201172022-12-07 13:14:2049.6576-4.444612616335488Clb=7.5m/s t=-59.8C h=-1.0% p=-1.0hPa 403.301 MHz Type=RS41-SG ser=U2420117 Radiosonde
F1IEE-RSU24201172022-12-07 13:14:1049.6594-4.4505510922435448Clb=0.9m/s t=-59.6C h=-1.0% p=-1.0hPa 403.300 MHz Type=RS41-SG ser=U2420117 Radiosonde
KERNO2-14U24201172022-12-07 13:14:0849.6598-4.4520511719135443Clb=4.5m/s t=-59.6C h=4.3% 403.30MHz Type=RS41-SG Details on http://radiosondy.info
M1CTK-10U24201172022-12-07 13:13:5349.6633-4.4622412817635354Clb=8.2m/s t=-60.6C h=0.9% p=-1.0hPa 403.301 MHz Type=RS41-SG ser=U2420117 Radiosonde auto_rx v1.5.9
G1GRW-15U24201172022-12-07 13:13:5249.6653-4.4676511120935306Clb=3.0m/s t=-273.0C h=-1.0% p=-1.0hPa 403.301 MHz Type=RS41 ser=U2420117 Radiosonde
F1IEE-RSU24201172022-12-07 13:13:5149.6742-4.4942712215435061Clb=9.9m/s t=-273.0C h=-1.0% p=-1.0hPa 403.300 MHz Type=RS41 ser=U2420117 Radiosonde
KERNO2-14U24201172022-12-07 13:13:5049.679-4.5105511018734919Clb=4.3m/s t=-61.2C h=4.5% 403.30MHz Type=RS41-SG Details on http://radiosondy.info
M1CTK-14U24201172022-12-07 13:13:4949.681-4.5176310222634854Clb=5.0m/s t=-273.0C h=-1.0% p=-1.0hPa 403.300 MHz Type=RS41-SG ser=U2420117 Radiosonde auto_rx v1.5.9
KERNO2-14U24201172022-12-07 13:13:4749.6817-4.5213411719634831Clb=8.5m/s t=-62.2C h=4.6% 403.30MHz Type=RS41-SG Details on http://radiosondy.info
M7CWL-14U24201172022-12-07 13:13:3649.6844-4.5309712219334754Clb=7.7m/s t=-63.4C h=5.2% 403.30MHz Type=RS41-SG Details on http://radiosondy.info
KERNO2-14U24201172022-12-07 13:13:3549.685-4.5321712520234744Clb=1.8m/s t=-63.3C h=5.2% 403.30MHz Type=RS41-SG batt=2.5V Details on http://radiosondy.info
M1CTK-14U24201172022-12-07 13:13:2849.6873-4.5409912717234677Clb=7.7m/s t=-273.0C h=-1.0% p=-1.0hPa 403.300 MHz Type=RS41-SG ser=U2420117 Radiosonde auto_rx v1.5.9
KERNO2-14U24201172022-12-07 13:13:2149.6883-4.5433311519434666Clb=5.9m/s t=-63.3C h=5.0% 403.30MHz Type=RS41-SG Details on http://radiosondy.info
KERNO2-14U24201172022-12-07 13:13:0849.6914-4.5545810919334575Clb=9.9m/s t=-64.0C h=5.3% 403.30MHz Type=RS41-SG Details on http://radiosondy.info
M1CTK-14U24201172022-12-07 13:13:0449.6923-4.5592111717434548Clb=10.0m/s t=-273.0C h=-1.0% p=-1.0hPa 403.300 MHz Type=RS41-SG ser=U2420117 Radiosonde auto_rx v1.5.9
KERNO2-14U24201172022-12-07 13:12:5649.6944-4.5652310518134486Clb=2.9m/s t=-63.8C h=5.3% 403.30MHz Type=RS41-SG TxPastBurst=8h30m batt=2.5V Details on http://radiosondy.info
KERNO2-14U24201172022-12-07 13:12:4349.6973-4.5751111016734403Clb=3.6m/s t=-63.4C h=4.8% 403.30MHz Type=RS41-SG Details on http://radiosondy.info
M1CTK-14U24201172022-12-07 13:12:4149.6978-4.576812114434384Clb=7.6m/s t=-273.0C h=-1.0% p=-1.0hPa 403.300 MHz Type=RS41 ser=U2420117 Radiosonde auto_rx v1.5.9
KERNO2-14U24201172022-12-07 13:12:3049.7-4.584211215934309Clb=6.0m/s t=-64.6C h=5.6% 403.30MHz Type=RS41-SG Details on http://radiosondy.info
KERNO2-14U24201172022-12-07 13:12:1649.7022-4.5933711116534216Clb=6.9m/s t=-64.7C h=5.7% 403.30MHz Type=RS41-SG batt=2.5V Details on http://radiosondy.info
M1CTK-10U24201172022-12-07 13:12:1449.704-4.6031510217434120Clb=4.4m/s t=-64.5C h=1.1% p=-1.0hPa 403.301 MHz Type=RS41-SG ser=U2420117 Radiosonde auto_rx v1.5.9
KERNO2-14U24201172022-12-07 13:12:0449.704-4.6031510316734120Clb=4.4m/s t=-64.5C h=5.4% 403.30MHz Type=RS41-SG Details on http://radiosondy.info
KERNO2-14U24201172022-12-07 13:11:5049.7061-4.6127211116734019Clb=4.7m/s t=-64.7C h=5.7% 403.30MHz Type=RS41-SG Details on http://radiosondy.info
F4IPAU24201172022-12-07 13:11:4949.7062-4.6132810715434014Clb=4.5m/s t=-273.0C h=-1.0% p=-1.0hPa 403.300 MHz Type=RS41-SG ser=U2420117 Radiosonde
KERNO2-14U24201172022-12-07 13:11:3749.7078-4.6225510217033922Clb=7.9m/s t=-64.2C h=5.2% 403.30MHz Type=RS41-SG batt=2.5V Details on http://radiosondy.info
KERNO2-14U24201172022-12-07 13:11:2249.7095-4.632499915733825Clb=7.3m/s t=-65.4C h=5.7% 403.30MHz Type=RS41-SG Details on http://radiosondy.info
M7CWL-14U24201172022-12-07 13:11:1749.7099-4.6359410416733788Clb=7.7m/s t=-65.2C h=5.5% 403.30MHz Type=RS41-SG batt=2.6V Details on http://radiosondy.info
KERNO2-14U24201172022-12-07 13:11:0949.7109-4.6418410416333729Clb=4.1m/s t=-65.7C h=5.6% 403.30MHz Type=RS41-SG Details on http://radiosondy.info
KERNO2-14U24201172022-12-07 13:10:5449.7129-4.6515110516533627Clb=5.5m/s t=-66.1C h=6.0% 403.30MHz Type=RS41-SG TxPastBurst=8h30m batt=2.5V Details on http://radiosondy.info
KERNO2-14U24201172022-12-07 13:10:4149.7146-4.6608710515433532Clb=7.2m/s t=-66.7C h=6.0% 403.30MHz Type=RS41-SG Details on http://radiosondy.info
KERNO2-14U24201172022-12-07 13:10:2449.7163-4.6699210815733431Clb=5.7m/s t=-66.6C h=5.9% 403.30MHz Type=RS41-SG Details on http://radiosondy.info
KERNO2-14U24201172022-12-07 13:10:1149.7178-4.6794510216133331Clb=4.7m/s t=-67.0C h=5.9% 403.30MHz Type=RS41-SG batt=2.5V Details on http://radiosondy.info
KERNO2-14U24201172022-12-07 13:09:5149.7197-4.6900410615433218Clb=5.9m/s t=-67.9C h=6.6% 403.30MHz Type=RS41-SG Details on http://radiosondy.info
KERNO2-14U24201172022-12-07 13:09:3549.7214-4.6991610914833116Clb=6.8m/s t=-67.8C h=6.5% 403.30MHz Type=RS41-SG Details on http://radiosondy.info
KERNO2-14U24201172022-12-07 13:09:1749.7237-4.7073912314433015Clb=3.7m/s t=-67.7C h=6.7% 403.30MHz Type=RS41-SG batt=2.5V Details on http://radiosondy.info
KERNO2-14U24201172022-12-07 13:08:5849.7261-4.7166811314632907Clb=6.0m/s t=-67.0C h=6.4% 403.30MHz Type=RS41-SG Details on http://radiosondy.info
M7CWL-14U24201172022-12-07 13:08:4449.7277-4.722911314332833Clb=7.2m/s t=-66.6C h=6.1% 403.30MHz Type=RS41-SG Details on http://radiosondy.info
KERNO2-14U24201172022-12-07 13:08:4049.7284-4.7248612114832808Clb=4.6m/s t=-66.4C h=6.1% 403.30MHz Type=RS41-SG Details on http://radiosondy.info
M7CWL-14U24201172022-12-07 13:08:2949.7297-4.7304711715732740Clb=5.6m/s t=-66.1C h=5.9% 403.30MHz Type=RS41-SG Details on http://radiosondy.info
M1CTK-10U24201172022-12-07 13:08:2849.7304-4.7327110816132714Clb=5.5m/s t=-66.0C h=1.3% p=-1.0hPa 403.301 MHz Type=RS41-SG ser=U2420117 Radiosonde auto_rx v1.5.9
KERNO2-14U24201172022-12-07 13:08:2449.7305-4.7332810914632709Clb=4.7m/s t=-65.9C h=5.8% 403.30MHz Type=RS41-SG TxPastBurst=8h30m batt=2.6V Details on http://radiosondy.info
M7CWL-14U24201172022-12-07 13:08:1249.7317-4.7382310515432647Clb=6.7m/s t=-66.2C h=5.8% 403.30MHz Type=RS41-SG batt=2.5V Details on http://radiosondy.info
KERNO2-14U24201172022-12-07 13:08:0749.7326-4.7416712315432610Clb=6.9m/s t=-66.2C h=5.9% 403.30MHz Type=RS41-SG Details on http://radiosondy.info
M7CWL-14U24201172022-12-07 13:07:5749.7336-4.7464711217032556Clb=7.0m/s t=-66.0C h=5.8% 403.30MHz Type=RS41-SG Details on http://radiosondy.info
M1CTK-10U24201172022-12-07 13:07:5549.7346-4.7492711714332527Clb=5.3m/s t=-65.9C h=1.1% p=-1.0hPa 403.301 MHz Type=RS41-SG ser=U2420117 Radiosonde auto_rx v1.5.9
KERNO2-14U24201172022-12-07 13:07:5049.7349-4.7502610715932514Clb=7.8m/s t=-65.9C h=5.5% 403.30MHz Type=RS41-SG Details on http://radiosondy.info
KERNO2-14U24201172022-12-07 13:07:3249.7371-4.759410615432419Clb=4.5m/s t=-66.7C h=5.8% 403.30MHz Type=RS41-SG batt=2.6V Details on http://radiosondy.info
M1CTK-10U24201172022-12-07 13:07:2049.7387-4.7647410816332355Clb=5.6m/s t=-67.3C h=1.3% p=-1.0hPa 403.301 MHz Type=RS41-SG ser=U2420117 Radiosonde auto_rx v1.5.9
KERNO2-14U24201172022-12-07 13:07:1049.7394-4.7679411214432316Clb=6.6m/s t=-67.5C h=6.2% 403.30MHz Type=RS41-SG Details on http://radiosondy.info
F4IPAU24201172022-12-07 13:07:0349.7407-4.7725911414632262Clb=3.9m/s t=-273.0C h=-1.0% p=-1.0hPa 403.300 MHz Type=RS41-SG ser=U2420117 Radiosonde
KERNO2-14U24201172022-12-07 13:06:5049.7413-4.776310814332223Clb=6.4m/s t=-67.4C h=6.1% 403.30MHz Type=RS41-SG Details on http://radiosondy.info
M1CTK-10U24201172022-12-07 13:06:4149.7425-4.7804410215432170Clb=6.6m/s t=-67.8C h=1.4% p=-1.0hPa 403.301 MHz Type=RS41-SG ser=U2420117 Radiosonde auto_rx v1.5.9
KERNO2-14U24201172022-12-07 13:06:3049.7433-4.7844112014332123Clb=5.0m/s t=-67.4C h=6.2% 403.30MHz Type=RS41-SG batt=2.6V Details on http://radiosondy.info
F4IPAU24201172022-12-07 13:06:2649.7438-4.7859110914832105Clb=6.0m/s t=-273.0C h=-1.0% p=-1.0hPa 403.300 MHz Type=RS41-SG ser=U2420117 Radiosonde
KERNO2-14U24201172022-12-07 13:06:1149.7453-4.7926810714432028Clb=4.6m/s t=-68.2C h=6.8% 403.30MHz Type=RS41-SG Details on http://radiosondy.info
M1CTK-10U24201172022-12-07 13:06:0449.7462-4.7961611114431985Clb=7.3m/s t=-68.1C h=1.4% p=-1.0hPa 403.301 MHz Type=RS41-SG ser=U2420117 Radiosonde auto_rx v1.5.9
KERNO2-14U24201172022-12-07 13:05:5149.7474-4.8006111513331933Clb=5.6m/s t=-68.3C h=6.6% 403.30MHz Type=RS41-SG Details on http://radiosondy.info
F4IPAU24201172022-12-07 13:05:4949.7492-4.8061611713131866Clb=6.7m/s t=-273.0C h=-1.0% p=-1.0hPa 403.300 MHz Type=RS41 ser=U2420117 Radiosonde
KERNO2-14U24201172022-12-07 13:05:2949.7496-4.8080510513131840Clb=4.1m/s t=-68.2C h=6.7% 403.30MHz Type=RS41-SG TxPastBurst=8h30m batt=2.6V Details on http://radiosondy.info
M1CTK-10U24201172022-12-07 13:05:2549.7504-4.8106812013731805Clb=5.0m/s t=-68.2C h=-1.0% p=-1.0hPa 403.301 MHz Type=RS41-SG ser=U2420117 Radiosonde auto_rx v1.5.9
KERNO2-14U24201172022-12-07 13:05:0949.7517-4.8153311712231747Clb=5.5m/s t=-68.0C h=6.4% 403.30MHz Type=RS41-SG Details on http://radiosondy.info
M7CWL-14U24201172022-12-07 13:05:0649.7519-4.8157411512431741Clb=6.6m/s t=-68.2C h=6.5% 403.30MHz Type=RS41-SG Details on http://radiosondy.info
KERNO2-14U24201172022-12-07 13:04:4649.7538-4.8221412012631653Clb=7.2m/s t=-67.9C h=6.6% 403.30MHz Type=RS41-SG Details on http://radiosondy.info
M7CWL-14U24201172022-12-07 13:04:4549.7538-4.8221412012431653Clb=7.2m/s t=-67.9C h=6.6% 403.30MHz Type=RS41-SG TxPastBurst=8h30m batt=2.6V Details on http://radiosondy.info
M7CWL-14U24201172022-12-07 13:04:2649.7562-4.8284112512231572Clb=4.7m/s t=-67.9C h=6.6% 403.30MHz Type=RS41-SG Details on http://radiosondy.info
F4IPAU24201172022-12-07 13:04:2549.7564-4.8288111911931567Clb=5.9m/s t=-67.8C h=1.4% p=-1.0hPa 403.300 MHz Type=RS41-SG ser=U2420117 Radiosonde
M1CTK-10U24201172022-12-07 13:04:0849.7583-4.835210712231480Clb=4.8m/s t=-67.7C h=-1.0% p=-1.0hPa 403.301 MHz Type=RS41-SG ser=U2420117 Radiosonde auto_rx v1.5.9
KERNO2-14U24201172022-12-07 13:04:0749.7584-4.8356411113031475Clb=6.4m/s t=-67.7C h=6.5% 403.30MHz Type=RS41-SG Details on http://radiosondy.info
M7CWL-14U24201172022-12-07 13:04:0449.7586-4.8364911912631462Clb=5.8m/s t=-67.6C h=6.4% 403.30MHz Type=RS41-SG Details on http://radiosondy.info
F4IPAU24201172022-12-07 13:03:4949.7604-4.8429910612431379Clb=5.6m/s t=-67.9C h=1.4% p=-1.0hPa 403.300 MHz Type=RS41-SG ser=U2420117 Radiosonde
KERNO2-14U24201172022-12-07 13:03:4549.7606-4.8438911113531369Clb=5.0m/s t=-67.7C h=6.2% 403.30MHz Type=RS41-SG Details on http://radiosondy.info
KERNO2-14U24201172022-12-07 13:03:2549.7626-4.8515311113031274Clb=6.0m/s t=-68.4C h=6.5% 403.30MHz Type=RS41-SG batt=2.5V Details on http://radiosondy.info
F4IPAU24201172022-12-07 13:03:1049.7642-4.8577211311931200Clb=4.7m/s t=-68.2C h=-1.0% p=-1.0hPa 403.300 MHz Type=RS41-SG ser=U2420117 Radiosonde
KERNO2-14U24201172022-12-07 13:03:0549.7646-4.8588812712631179Clb=5.7m/s t=-68.1C h=6.4% 403.30MHz Type=RS41-SG Details on http://radiosondy.info
KERNO2-14U24201172022-12-07 13:02:4349.7667-4.8658611412631083Clb=7.3m/s t=-68.1C h=6.6% 403.30MHz Type=RS41-SG Details on http://radiosondy.info
F4IPAU24201172022-12-07 13:02:2749.7681-4.87111113031008Clb=7.9m/s t=-67.9C h=-1.0% p=-1.0hPa 403.300 MHz Type=RS41 ser=U2420117 Radiosonde
KERNO2-14U24201172022-12-07 13:02:2149.7685-4.8730111111730984Clb=5.6m/s t=-67.6C h=6.5% 403.30MHz Type=RS41-SG TxPastBurst=8h30m batt=2.5V Details on http://radiosondy.info
KERNO2-14U24201172022-12-07 13:02:0149.7702-4.8796210610630880Clb=6.8m/s t=-67.5C h=6.4% 403.30MHz Type=RS41-SG Details on http://radiosondy.info
KERNO2-14U24201172022-12-07 13:01:3749.7714-4.885671059830777Clb=7.1m/s t=-67.2C h=6.2% 403.30MHz Type=RS41-SG Details on http://radiosondy.info
M1CTK-10U24201172022-12-07 13:01:3249.7719-4.8880110810930731Clb=6.0m/s t=-67.2C h=-1.0% p=-1.0hPa 403.301 MHz Type=RS41-SG ser=U2420117 Radiosonde auto_rx v1.5.9
M7CWL-14U24201172022-12-07 13:01:1449.7728-4.890910810430681Clb=7.5m/s t=-67.1C h=6.0% 403.30MHz Type=RS41-SG batt=2.5V Details on http://radiosondy.info
KERNO2-14U24201172022-12-07 13:01:1349.7728-4.8912210410230674Clb=6.1m/s t=-67.2C h=6.1% 403.30MHz Type=RS41-SG batt=2.5V Details on http://radiosondy.info
M7CWL-14U24201172022-12-07 13:00:4849.7744-4.896111209430588Clb=7.2m/s t=-67.1C h=6.1% 403.30MHz Type=RS41-SG Details on http://radiosondy.info
KERNO2-14U24201172022-12-07 13:00:4649.7747-4.896651329430574Clb=6.3m/s t=-67.2C h=6.2% 403.30MHz Type=RS41-SG Details on http://radiosondy.info
M1CTK-10U24201172022-12-07 13:00:4149.7755-4.898071229830543Clb=5.9m/s t=-67.1C h=-1.0% p=-1.0hPa 403.301 MHz Type=RS41-SG ser=U2420117 Radiosonde auto_rx v1.5.9
M7CWL-14U24201172022-12-07 13:00:2249.7765-4.90061189630496Clb=7.0m/s t=-67.1C h=6.2% 403.30MHz Type=RS41-SG Details on http://radiosondy.info
KERNO2-14U24201172022-12-07 13:00:1849.7768-4.90151189830477Clb=4.3m/s t=-67.0C h=6.2% 403.30MHz Type=RS41-SG Details on http://radiosondy.info
F4IPAU24201172022-12-07 13:00:0249.7783-4.904511010030414Clb=5.9m/s t=-66.8C h=1.3% p=-1.0hPa 403.300 MHz Type=RS41-SG ser=U2420117 Radiosonde
KERNO2-14U24201172022-12-07 12:59:5449.7791-4.9062514510230378Clb=7.0m/s t=-66.8C h=6.3% 403.30MHz Type=RS41-SG batt=2.5V Details on http://radiosondy.info
M1CTK-10U24201172022-12-07 12:59:5349.7793-4.9064914411330371Clb=6.0m/s t=-66.9C h=-1.0% p=-1.0hPa 403.301 MHz Type=RS41-SG ser=U2420117 Radiosonde auto_rx v1.5.9
KERNO2-14U24201172022-12-07 12:59:3949.7818-4.9109213211730279Clb=5.4m/s t=-66.6C h=6.2% 403.30MHz Type=RS41-SG Details on http://radiosondy.info
F4IPAU24201172022-12-07 12:59:3149.7833-4.9134312410630227Clb=6.3m/s t=-66.7C h=1.3% p=-1.0hPa 403.300 MHz Type=RS41-SG ser=U2420117 Radiosonde
KERNO2-14U24201172022-12-07 12:59:2249.785-4.9161813513030179Clb=7.4m/s t=-67.3C h=6.6% 403.30MHz Type=RS41-SG Details on http://radiosondy.info
KERNO2-14U24201172022-12-07 12:59:0649.7883-4.9221613712230082Clb=4.3m/s t=-66.6C h=6.4% 403.30MHz Type=RS41-SG TxPastBurst=8h30m batt=2.6V Details on http://radiosondy.info
F4IPAU24201172022-12-07 12:59:0049.7896-4.9246213011530040Clb=6.3m/s t=-66.6C h=1.3% p=-1.0hPa 403.300 MHz Type=RS41-SG ser=U2420117 Radiosonde
M1CTK-10U24201172022-12-07 12:58:5349.7911-4.9275513111129994Clb=7.4m/s t=-273.0C h=-1.0% p=-1.0hPa 403.301 MHz Type=RS41 ser=U2420117 Radiosonde auto_rx v1.5.9
KERNO2-14U24201172022-12-07 12:58:5049.7913-4.9278613411329987Clb=7.2m/s t=-66.1C h=6.2% 403.30MHz Type=RS41-SG Details on http://radiosondy.info
KERNO2-14U24201172022-12-07 12:58:3649.794-4.9333411710729894Clb=4.8m/s t=-66.4C h=6.1% 403.30MHz Type=RS41-SG Details on http://radiosondy.info
F4IPAU24201172022-12-07 12:58:2949.7948-4.9353912611929862Clb=4.1m/s t=-66.3C h=1.3% p=-1.0hPa 403.300 MHz Type=RS41-SG ser=U2420117 Radiosonde
M1CTK-10U24201172022-12-07 12:58:2349.7955-4.9373511110729835Clb=4.4m/s t=-273.0C h=-1.0% p=-1.0hPa 403.301 MHz Type=RS41 ser=U2420117 Radiosonde auto_rx v1.5.9
KERNO2-14U24201172022-12-07 12:58:1849.7961-4.9389912910629808Clb=3.7m/s t=-66.4C h=5.9% 403.30MHz Type=RS41-SG batt=2.6V Details on http://radiosondy.info
KERNO2-14U24201172022-12-07 12:58:0449.8199-4.979391508528865Clb=5.3m/s t=-69.1C h=7.0% 403.30MHz Type=RS41-SG Details on http://radiosondy.info
EA1JAY-15U24201172022-12-07 12:57:5949.821-4.980531498728828Clb=6.6m/s 403.300MHz Type=RS41 rdzTTGOsonde
F4IPAU24201172022-12-07 12:57:5849.8228-4.982251488028764Clb=7.4m/s t=-68.9C h=1.6% p=-1.0hPa 403.300 MHz Type=RS41-SG ser=U2420117 Radiosonde
M1CTK-14U24201172022-12-07 12:57:5749.8287-4.986861468728562Clb=7.5m/s t=-68.5C h=1.6% p=-1.0hPa 403.300 MHz Type=RS41-SG ser=U2420117 Radiosonde auto_rx v1.5.9
KERNO2-14U24201172022-12-07 12:57:5649.8324-4.989771488728446Clb=5.9m/s t=-69.2C h=7.1% 403.30MHz Type=RS41-SG Details on http://radiosondy.info
M1CTK-14U24201172022-12-07 12:57:5549.8347-4.991671517828371Clb=7.7m/s t=-69.3C h=1.7% p=-1.0hPa 403.300 MHz Type=RS41-SG ser=U2420117 Radiosonde auto_rx v1.5.9
EA1JAY-15U24201172022-12-07 12:57:5449.8371-4.993921398028274Clb=5.0m/s 403.300MHz Type=RS41 rdzTTGOsonde
KERNO2-14U24201172022-12-07 12:57:5349.8378-4.99461576928242Clb=5.2m/s t=-69.0C h=7.0% 403.30MHz Type=RS41-SG Details on http://radiosondy.info
KERNO2-14U24201172022-12-07 12:57:5249.8399-4.997331476728139Clb=6.0m/s t=-68.8C h=7.1% 403.30MHz Type=RS41-SG Details on http://radiosondy.info
M1CTK-14U24201172022-12-07 12:57:5149.8432-5.001031537627992Clb=7.0m/s t=-68.3C h=1.5% p=-1.0hPa 403.300 MHz Type=RS41-SG ser=U2420117 Radiosonde auto_rx v1.5.9
KERNO2-14U24201172022-12-07 12:57:5049.8466-5.004851417027848Clb=6.4m/s t=-67.8C h=6.5% 403.30MHz Type=RS41-SG Details on http://radiosondy.info
M1CTK-14U24201172022-12-07 12:57:4949.8473-5.005581476927819Clb=5.0m/s t=-67.7C h=1.5% p=-1.0hPa 403.300 MHz Type=RS41-SG ser=U2420117 Radiosonde auto_rx v1.5.9
M1CTK-14U24201172022-12-07 12:57:4749.8518-5.010521396727626Clb=5.0m/s t=-67.0C h=1.4% p=-1.0hPa 403.300 MHz Type=RS41-SG ser=U2420117 Radiosonde auto_rx v1.5.9
KERNO2-14U24201172022-12-07 12:57:4549.8549-5.014151426527462Clb=5.3m/s t=-66.4C h=6.2% 403.30MHz Type=RS41-SG TxPastBurst=8h30m batt=2.5V Details on http://radiosondy.info
KERNO2-14U24201172022-12-07 12:57:4449.8572-5.016281496727364Clb=4.5m/s t=-65.9C h=6.2% 403.30MHz Type=RS41-SG Details on http://radiosondy.info
KERNO2-14U24201172022-12-07 12:57:4349.8594-5.018551516127271Clb=6.1m/s t=-65.3C h=5.8% 403.30MHz Type=RS41-SG Details on http://radiosondy.info
M7CWL-14U24201172022-12-07 12:57:4249.8595-5.018681466327265Clb=5.8m/s t=-65.4C h=5.8% 403.30MHz Type=RS41-SG Details on http://radiosondy.info
F4IPAU24201172022-12-07 12:57:4149.8604-5.019561525227224Clb=7.0m/s t=-65.2C h=1.3% p=-1.0hPa 403.300 MHz Type=RS41-SG ser=U2420117 Radiosonde
KERNO2-14U24201172022-12-07 12:57:3249.8615-5.020471486127177Clb=4.6m/s t=-65.1C h=5.8% 403.30MHz Type=RS41-SG batt=2.5V Details on http://radiosondy.info
M7CWL-14U24201172022-12-07 12:57:2949.8617-5.020641455627172Clb=6.4m/s t=-65.2C h=5.8% 403.30MHz Type=RS41-SG Details on http://radiosondy.info
KERNO2-14U24201172022-12-07 12:57:0549.8635-5.022451466327085Clb=6.3m/s t=-64.8C h=5.6% 403.30MHz Type=RS41-SG Details on http://radiosondy.info
F4IPAU24201172022-12-07 12:56:5249.8644-5.02321574627046Clb=4.8m/s t=-65.0C h=1.3% p=-1.0hPa 403.300 MHz Type=RS41-SG ser=U2420117 Radiosonde
KERNO2-14U24201172022-12-07 12:56:3649.8657-5.024531347226996Clb=3.9m/s t=-64.7C h=5.5% 403.30MHz Type=RS41-SG Details on http://radiosondy.info
M1CTK-14U24201172022-12-07 12:56:1649.8673-5.026551348026925Clb=5.8m/s t=-65.2C h=1.3% p=-1.0hPa 403.300 MHz Type=RS41-SG ser=U2420117 Radiosonde auto_rx v1.5.9
F1IEE-RSU24201172022-12-07 12:56:1449.8674-5.026761357826919Clb=5.0m/s t=-65.1C h=1.3% p=-1.0hPa 403.300 MHz Type=RS41-SG ser=U2420117 Radiosonde
KERNO2-14U24201172022-12-07 12:56:0849.8678-5.027361327226903Clb=7.2m/s t=-65.0C h=5.7% 403.30MHz Type=RS41-SG batt=2.6V Details on http://radiosondy.info
F4IPAU24201172022-12-07 12:55:5649.8685-5.028471327026868Clb=4.5m/s t=-65.4C h=1.3% p=-1.0hPa 403.300 MHz Type=RS41-SG ser=U2420117 Radiosonde
KERNO2-14U24201172022-12-07 12:55:3949.8696-5.030821297226806Clb=6.7m/s t=-65.2C h=5.9% 403.30MHz Type=RS41-SG Details on http://radiosondy.info
M1CTK-14U24201172022-12-07 12:55:2549.8706-5.033151177426747Clb=4.6m/s t=-65.0C h=-1.0% p=-1.0hPa 403.300 MHz Type=RS41-SG ser=U2420117 Radiosonde auto_rx v1.5.9
F1IEE-RSU24201172022-12-07 12:55:1949.8708-5.033621296926735Clb=7.4m/s t=-64.9C h=1.3% p=-1.0hPa 403.300 MHz Type=RS41-SG ser=U2420117 Radiosonde
KERNO2-14U24201172022-12-07 12:55:1349.8713-5.034291386526712Clb=6.5m/s t=-65.0C h=5.9% 403.30MHz Type=RS41-SG Details on http://radiosondy.info
F4IPAU24201172022-12-07 12:55:0449.8717-5.035331237626681Clb=6.4m/s t=-64.8C h=1.3% p=-1.0hPa 403.300 MHz Type=RS41-SG ser=U2420117 Radiosonde
KERNO2-14U24201172022-12-07 12:54:4649.8729-5.037341436126619Clb=4.9m/s t=-64.6C h=5.7% 403.30MHz Type=RS41-SG TxPastBurst=8h30m batt=2.6V Details on http://radiosondy.info
M1CTK-14U24201172022-12-07 12:54:3749.8736-5.038651345726578Clb=6.6m/s t=-64.3C h=-1.0% p=-1.0hPa 403.300 MHz Type=RS41-SG ser=U2420117 Radiosonde auto_rx v1.5.9
F1IEE-RSU24201172022-12-07 12:54:3049.8741-5.039171465226554Clb=6.4m/s t=-64.5C h=1.3% p=-1.0hPa 403.300 MHz Type=RS41-SG ser=U2420117 Radiosonde
KERNO2-14U24201172022-12-07 12:54:2149.8746-5.039831425626525Clb=5.4m/s t=-64.4C h=5.8% 403.30MHz Type=RS41-SG Details on http://radiosondy.info
F4IPAU24201172022-12-07 12:54:1349.875-5.040481204626502Clb=7.0m/s t=-64.2C h=1.3% p=-1.0hPa 403.300 MHz Type=RS41-SG ser=U2420117 Radiosonde
KERNO2-14U24201172022-12-07 12:53:5349.8763-5.041941255726435Clb=4.6m/s t=-64.3C h=5.3% 403.30MHz Type=RS41-SG Details on http://radiosondy.info
M1CTK-14U24201172022-12-07 12:53:4649.8768-5.042681505626406Clb=5.6m/s t=-64.6C h=-1.0% p=-1.0hPa 403.300 MHz Type=RS41-SG ser=U2420117 Radiosonde auto_rx v1.5.9
F1IEE-RSU24201172022-12-07 12:53:3949.8773-5.043281345626379Clb=4.3m/s t=-64.7C h=1.2% p=-1.0hPa 403.300 MHz Type=RS41-SG ser=U2420117 Radiosonde
KERNO2-14U24201172022-12-07 12:53:2749.878-5.044221445026344Clb=6.0m/s t=-65.2C h=5.8% 403.30MHz Type=RS41-SG batt=2.6V Details on http://radiosondy.info
F4IPAU24201172022-12-07 12:53:2049.8783-5.044481634826325Clb=7.4m/s t=-65.4C h=1.3% p=-1.0hPa 403.300 MHz Type=RS41-SG ser=U2420117 Radiosonde
M7CWL-14U24201172022-12-07 12:53:1349.8787-5.044681485626303Clb=7.1m/s t=-65.5C h=5.9% 403.30MHz Type=RS41-SG batt=2.6V Details on http://radiosondy.info
KERNO2-14U24201172022-12-07 12:52:5949.8797-5.045631655926250Clb=6.4m/s t=-65.0C h=5.8% 403.30MHz Type=RS41-SG Details on http://radiosondy.info
M1CTK-14U24201172022-12-07 12:52:5449.8801-5.045821534426232Clb=5.5m/s t=-65.1C h=-1.0% p=-1.0hPa 403.300 MHz Type=RS41-SG ser=U2420117 Radiosonde auto_rx v1.5.9
M7CWL-14U24201172022-12-07 12:52:4349.8807-5.046361557226204Clb=5.1m/s t=-65.1C h=5.8% 403.30MHz Type=RS41-SG Details on http://radiosondy.info
F1IEE-RSU24201172022-12-07 12:52:4249.8808-5.046461586526199Clb=5.9m/s t=-65.1C h=1.4% p=-1.0hPa 403.300 MHz Type=RS41-SG ser=U2420117 Radiosonde
KERNO2-14U24201172022-12-07 12:52:2549.882-5.047161507626157Clb=4.8m/s t=-65.0C h=5.8% 403.30MHz Type=RS41-SG Details on http://radiosondy.info
F4IPAU24201172022-12-07 12:52:1949.8825-5.047621527226140Clb=6.1m/s t=-64.9C h=1.3% p=-1.0hPa 403.300 MHz Type=RS41-SG ser=U2420117 Radiosonde
M7CWL-14U24201172022-12-07 12:52:0949.8831-5.048121487826119Clb=7.0m/s t=-64.7C h=5.5% 403.30MHz Type=RS41-SG Details on http://radiosondy.info
KERNO2-14U24201172022-12-07 12:51:4849.8846-5.049441498126065Clb=5.7m/s t=-65.0C h=5.6% 403.30MHz Type=RS41-SG batt=2.6V Details on http://radiosondy.info
M7CWL-14U24201172022-12-07 12:51:3749.8856-5.050311528526031Clb=6.0m/s t=-65.4C h=5.8% 403.30MHz Type=RS41-SG batt=2.5V Details on http://radiosondy.info
F1IEE-RSU24201172022-12-07 12:51:3549.886-5.050661448326018Clb=6.0m/s t=-65.3C h=1.3% p=-1.0hPa 403.300 MHz Type=RS41-SG ser=U2420117 Radiosonde
KERNO2-14U24201172022-12-07 12:51:1949.8873-5.052191418525972Clb=6.1m/s t=-65.4C h=6.0% 403.30MHz Type=RS41-SG Details on http://radiosondy.info
F4IPAU24201172022-12-07 12:51:1749.8877-5.052661399125961Clb=4.9m/s t=-65.5C h=-1.0% p=-1.0hPa 403.300 MHz Type=RS41-SG ser=U2420117 Radiosonde
KERNO2-14U24201172022-12-07 12:50:5249.8899-5.055521408725880Clb=6.9m/s t=-65.3C h=5.8% 403.30MHz Type=RS41-SG Details on http://radiosondy.info
F1IEE-RSU24201172022-12-07 12:50:4149.8909-5.057051358125841Clb=6.3m/s t=-65.4C h=1.4% p=-1.0hPa 403.300 MHz Type=RS41-SG ser=U2420117 Radiosonde
KERNO2-14U24201172022-12-07 12:50:2649.8924-5.05921278725788Clb=6.5m/s t=-66.0C h=6.0% 403.30MHz Type=RS41-SG TxPastBurst=8h30m batt=2.6V Details on http://radiosondy.info
F4IPAU24201172022-12-07 12:50:2549.8925-5.059481238525782Clb=5.0m/s t=-66.0C h=-1.0% p=-1.0hPa 403.300 MHz Type=RS41-SG ser=U2420117 Radiosonde
KERNO2-14U24201172022-12-07 12:49:5649.8947-5.063051258125695Clb=4.9m/s t=-66.0C h=6.1% 403.30MHz Type=RS41-SG Details on http://radiosondy.info
F1IEE-RSU24201172022-12-07 12:49:4749.8954-5.064441367625664Clb=4.7m/s t=-65.9C h=1.4% p=-1.0hPa 403.300 MHz Type=RS41-SG ser=U2420117 Radiosonde
KERNO2-14U24201172022-12-07 12:49:2649.8969-5.066611307425603Clb=6.6m/s t=-65.9C h=6.1% 403.30MHz Type=RS41-SG Details on http://radiosondy.info
M1CTK-14U24201172022-12-07 12:49:0349.8987-5.069571206325522Clb=5.9m/s t=-65.8C h=-1.0% p=-1.0hPa 403.300 MHz Type=RS41-SG ser=U2420117 Radiosonde auto_rx v1.5.9
KERNO2-14U24201172022-12-07 12:48:5549.8989-5.070021187625510Clb=5.3m/s t=-65.8C h=6.1% 403.30MHz Type=RS41-SG batt=2.6V Details on http://radiosondy.info
F1IEE-RSU24201172022-12-07 12:48:4749.8994-5.071111407225482Clb=5.0m/s t=-65.8C h=1.4% p=-1.0hPa 403.300 MHz Type=RS41-SG ser=U2420117 Radiosonde
F4IPAU24201172022-12-07 12:48:2849.9008-5.073191357025428Clb=5.2m/s t=-65.6C h=-1.0% p=-1.0hPa 403.300 MHz Type=RS41-SG ser=U2420117 Radiosonde
KERNO2-14U24201172022-12-07 12:48:2549.9009-5.073391337825422Clb=6.8m/s t=-65.4C h=5.9% 403.30MHz Type=RS41-SG Details on http://radiosondy.info
M1CTK-14U24201172022-12-07 12:48:0649.9022-5.075641248725364Clb=5.5m/s t=-65.4C h=-1.0% p=-1.0hPa 403.300 MHz Type=RS41-SG ser=U2420117 Radiosonde auto_rx v1.5.9
KERNO2-14U24201172022-12-07 12:47:5349.903-5.076991348125330Clb=6.0m/s t=-65.6C h=5.9% 403.30MHz Type=RS41-SG Details on http://radiosondy.info
F1IEE-RSU24201172022-12-07 12:47:4549.9035-5.0781278925307Clb=5.9m/s t=-65.8C h=1.4% p=-1.0hPa 403.300 MHz Type=RS41-SG ser=U2420117 Radiosonde
M7CWL-14U24201172022-12-07 12:47:4349.9036-5.078261308325301Clb=6.5m/s t=-65.7C h=6.0% 403.30MHz Type=RS41-SG Details on http://radiosondy.info
F4IPAU24201172022-12-07 12:47:2749.9047-5.080651257025249Clb=5.9m/s t=-65.5C h=-1.0% p=-1.0hPa 403.300 MHz Type=RS41-SG ser=U2420117 Radiosonde
KERNO2-14U24201172022-12-07 12:47:2349.9049-5.08111267625239Clb=5.0m/s t=-65.4C h=5.9% 403.30MHz Type=RS41-SG batt=2.6V Details on http://radiosondy.info
M7CWL-14U24201172022-12-07 12:47:0749.9054-5.082461277625210Clb=6.5m/s t=-65.1C h=6.0% 403.30MHz Type=RS41-SG Details on http://radiosondy.info
M1CTK-14U24201172022-12-07 12:47:0549.9057-5.082961287825199Clb=4.3m/s t=-65.1C h=-1.0% p=-1.0hPa 403.300 MHz Type=RS41-SG ser=U2420117 Radiosonde auto_rx v1.5.9
KERNO2-14U24201172022-12-07 12:46:4949.9066-5.084931307025147Clb=6.9m/s t=-64.7C h=5.8% 403.30MHz Type=RS41-SG Details on http://radiosondy.info
F1IEE-RSU24201172022-12-07 12:46:4349.907-5.085671278125129Clb=5.7m/s t=-64.7C h=1.3% p=-1.0hPa 403.300 MHz Type=RS41-SG ser=U2420117 Radiosonde
M7CWL-14U24201172022-12-07 12:46:2749.9078-5.087471256725085Clb=6.2m/s t=-64.5C h=5.7% 403.30MHz Type=RS41-SG TxPastBurst=8h30m batt=2.6V Details on http://radiosondy.info
F4IPAU24201172022-12-07 12:46:2549.908-5.087841346725073Clb=5.2m/s t=-273.0C h=-1.0% p=-1.0hPa 403.300 MHz Type=RS41-SG ser=U2420117 Radiosonde
KERNO2-14U24201172022-12-07 12:46:1849.9083-5.088451306525057Clb=6.0m/s t=-64.3C h=5.6% 403.30MHz Type=RS41-SG Details on http://radiosondy.info
M1CTK-14U24201172022-12-07 12:46:0749.9089-5.089571296125030Clb=6.2m/s t=-64.3C h=-1.0% p=-1.0hPa 403.300 MHz Type=RS41-SG ser=U2420117 Radiosonde auto_rx v1.5.9
M7CWL-14U24201172022-12-07 12:45:5849.9093-5.090461184625003Clb=5.7m/s t=-64.3C h=5.5% 403.30MHz Type=RS41-SG Details on http://radiosondy.info
KERNO2-14U24201172022-12-07 12:45:4949.9098-5.091631325924970Clb=4.2m/s t=-64.3C h=5.7% 403.30MHz Type=RS41-SG TxPastBurst=8h30m batt=2.6V Details on http://radiosondy.info
F1IEE-RSU24201172022-12-07 12:45:4549.91-5.091991235724959Clb=6.7m/s t=-64.4C h=1.3% p=-1.0hPa 403.300 MHz Type=RS41-SG ser=U2420117 Radiosonde
F4IPAU24201172022-12-07 12:45:2749.9109-5.094341315624892Clb=6.2m/s t=-273.0C h=-1.0% p=-1.0hPa 403.300 MHz Type=RS41 ser=U2420117 Radiosonde
KERNO2-14U24201172022-12-07 12:45:1849.9111-5.094641345624881Clb=4.6m/s t=-63.8C h=5.4% 403.30MHz Type=RS41-SG Details on http://radiosondy.info
M1CTK-14U24201172022-12-07 12:45:1349.9114-5.095281165224858Clb=4.3m/s t=-63.9C h=-1.0% p=-1.0hPa 403.300 MHz Type=RS41-SG ser=U2420117 Radiosonde auto_rx v1.5.9
KERNO2-14U24201172022-12-07 12:44:4849.9124-5.097271374624791Clb=5.0m/s t=-64.1C h=5.6% 403.30MHz Type=RS41-SG Details on http://radiosondy.info
F1IEE-RSU24201172022-12-07 12:44:4549.9125-5.097421295024785Clb=7.1m/s t=-64.2C h=1.3% p=-1.0hPa 403.300 MHz Type=RS41-SG ser=U2420117 Radiosonde
F4IPAU24201172022-12-07 12:44:2449.9132-5.098751384824728Clb=5.3m/s t=-273.0C h=-1.0% p=-1.0hPa 403.300 MHz Type=RS41 ser=U2420117 Radiosonde
KERNO2-14U24201172022-12-07 12:44:1349.9137-5.099231565224699Clb=4.6m/s t=-63.6C h=5.6% 403.30MHz Type=RS41-SG batt=2.5V Details on http://radiosondy.info
M1CTK-14U24201172022-12-07 12:44:1149.9142-5.099681425924674Clb=5.2m/s t=-63.4C h=-1.0% p=-1.0hPa 403.300 MHz Type=RS41-SG ser=U2420117 Radiosonde auto_rx v1.5.9
KERNO2-14U24201172022-12-07 12:43:5649.9155-5.10081475624603Clb=5.1m/s t=-62.9C h=5.3% 403.30MHz Type=RS41-SG Details on http://radiosondy.info
F4IPAU24201172022-12-07 12:43:4349.917-5.101681547024537Clb=6.0m/s t=-62.6C h=1.1% p=-1.0hPa 403.300 MHz Type=RS41-SG ser=U2420117 Radiosonde
M1CTK-14U24201172022-12-07 12:43:3549.9174-5.102151355924521Clb=6.6m/s t=-273.0C h=-1.0% p=-1.0hPa 403.300 MHz Type=RS41-SG ser=U2420117 Radiosonde auto_rx v1.5.9
KERNO2-14U24201172022-12-07 12:43:3349.9175-5.10231335024515Clb=6.1m/s t=-62.5C h=4.8% 403.30MHz Type=RS41-SG Details on http://radiosondy.info
F1IEE-RSU24201172022-12-07 12:43:2049.919-5.103831454824432Clb=4.8m/s t=-63.8C h=1.2% p=-1.0hPa 403.300 MHz Type=RS41-SG ser=U2420117 Radiosonde
KERNO2-14U24201172022-12-07 12:43:1949.9191-5.103941414824427Clb=5.0m/s t=-63.7C h=5.4% 403.30MHz Type=RS41-SG batt=2.6V Details on http://radiosondy.info
F4IPAU24201172022-12-07 12:43:1149.9199-5.105071374424374Clb=6.5m/s t=-63.7C h=1.3% p=-1.0hPa 403.300 MHz Type=RS41-SG ser=U2420117 Radiosonde
M1CTK-14U24201172022-12-07 12:43:0749.9202-5.105651285024349Clb=6.8m/s t=-273.0C h=-1.0% p=-1.0hPa 403.300 MHz Type=RS41 ser=U2420117 Radiosonde auto_rx v1.5.9
KERNO2-14U24201172022-12-07 12:43:0349.9204-5.106071283924331Clb=6.0m/s t=-63.9C h=5.5% 403.30MHz Type=RS41-SG Details on http://radiosondy.info
F1IEE-RSU24201172022-12-07 12:42:4849.9212-5.107861314324243Clb=5.4m/s t=-63.6C h=1.3% p=-1.0hPa 403.300 MHz Type=RS41-SG ser=U2420117 Radiosonde
KERNO2-14U24201172022-12-07 12:42:4549.9213-5.107981304324238Clb=5.1m/s t=-63.6C h=5.5% 403.30MHz Type=RS41-SG Details on http://radiosondy.info
M7CWL-14U24201172022-12-07 12:42:4249.9213-5.10811264324232Clb=7.0m/s t=-63.6C h=5.4% 403.30MHz Type=RS41-SG Details on http://radiosondy.info
F4IPAU24201172022-12-07 12:42:3449.9217-5.109161124624183Clb=7.2m/s t=-63.6C h=1.3% p=-1.0hPa 403.300 MHz Type=RS41-SG ser=U2420117 Radiosonde
KERNO2-14U24201172022-12-07 12:42:2449.922-5.11031094424140Clb=7.0m/s t=-63.4C h=5.4% 403.30MHz Type=RS41-SG TxPastBurst=8h30m batt=2.6V Details on http://radiosondy.info
KERNO2-14U24201172022-12-07 12:42:0249.9225-5.113021004424040Clb=6.3m/s t=-63.2C h=5.5% 403.30MHz Type=RS41-SG Details on http://radiosondy.info
F4IPAU24201172022-12-07 12:41:5549.9227-5.114131244623998Clb=4.9m/s t=-62.9C h=1.2% p=-1.0hPa 403.300 MHz Type=RS41-SG ser=U2420117 Radiosonde
M7CWL-14U24201172022-12-07 12:41:4749.923-5.115461264423951Clb=7.6m/s t=-62.7C h=5.1% 403.30MHz Type=RS41-SG Details on http://radiosondy.info
KERNO2-14U24201172022-12-07 12:41:4449.9232-5.115821373923933Clb=5.2m/s t=-62.7C h=5.1% 403.30MHz Type=RS41-SG Details on http://radiosondy.info
KERNO2-14U24201172022-12-07 12:41:2849.924-5.117921313523837Clb=5.7m/s t=-63.6C h=5.4% 403.30MHz Type=RS41-SG batt=2.6V Details on http://radiosondy.info
F4IPAU24201172022-12-07 12:41:2449.9243-5.118581293023807Clb=6.1m/s t=-63.8C h=1.3% p=-1.0hPa 403.300 MHz Type=RS41-SG ser=U2420117 Radiosonde
KERNO2-14U24201172022-12-07 12:41:1249.9251-5.119381433923738Clb=6.3m/s t=-63.6C h=5.5% 403.30MHz Type=RS41-SG Details on http://radiosondy.info
KERNO2-14U24201172022-12-07 12:40:4449.9759-5.157551293120461Clb=6.0m/s t=-62.1C h=5.3% 403.30MHz Type=RS41-SG batt=2.6V Details on http://radiosondy.info
KERNO2-14U24201172022-12-07 12:40:1049.9767-5.158991373320380Clb=5.3m/s t=-61.8C h=5.1% 403.30MHz Type=RS41-SG Details on http://radiosondy.info
M7CWL-14U24201172022-12-07 12:39:4649.9771-5.159991303320334Clb=4.9m/s t=-61.7C h=5.1% 403.30MHz Type=RS41-SG TxPastBurst=8h30m batt=2.7V Details on http://radiosondy.info
KERNO2-14U24201172022-12-07 12:39:2549.9775-5.160641383520298Clb=5.9m/s t=-61.6C h=5.1% 403.30MHz Type=RS41-SG Details on http://radiosondy.info
M7CWL-14U24201172022-12-07 12:39:0449.9779-5.161511363520256Clb=5.1m/s t=-61.4C h=5.1% 403.30MHz Type=RS41-SG Details on http://radiosondy.info
KERNO2-14U24201172022-12-07 12:38:4749.9784-5.162271293320216Clb=4.7m/s t=-61.2C h=5.0% 403.30MHz Type=RS41-SG TxPastBurst=8h30m batt=2.6V Details on http://radiosondy.info
M7CWL-14U24201172022-12-07 12:38:3049.9787-5.163051393520182Clb=5.5m/s t=-61.1C h=4.9% 403.30MHz Type=RS41-SG Details on http://radiosondy.info
KERNO2-14U24201172022-12-07 12:38:1049.9793-5.163821283320135Clb=5.9m/s t=-61.2C h=5.0% 403.30MHz Type=RS41-SG Details on http://radiosondy.info
M7CWL-14U24201172022-12-07 12:37:5649.9797-5.164411473120104Clb=4.7m/s t=-61.1C h=4.9% 403.30MHz Type=RS41-SG batt=2.6V Details on http://radiosondy.info
KERNO2-14U24201172022-12-07 12:37:3649.9802-5.165281283020050Clb=5.5m/s t=-61.1C h=4.9% 403.30MHz Type=RS41-SG Details on http://radiosondy.info
KERNO2-14U24201172022-12-07 12:36:5849.9811-5.166491422819970Clb=4.2m/s t=-61.3C h=5.0% 403.30MHz Type=RS41-SG batt=2.7V Details on http://radiosondy.info
KERNO2-14U24201172022-12-07 12:36:2149.9819-5.16761223019893Clb=4.3m/s t=-61.4C h=5.0% 403.30MHz Type=RS41-SG Details on http://radiosondy.info
KERNO2-14U24201172022-12-07 12:35:4349.9827-5.168871303119816Clb=4.0m/s t=-61.5C h=5.1% 403.30MHz Type=RS41-SG Details on http://radiosondy.info
KERNO2-14U24201172022-12-07 12:34:5849.9837-5.170171593519728Clb=4.8m/s t=-61.3C h=5.1% 403.30MHz Type=RS41-SG batt=2.7V Details on http://radiosondy.info
KERNO2-14U24201172022-12-07 12:34:1949.985-5.17111503719654Clb=4.4m/s t=-61.0C h=4.9% 403.30MHz Type=RS41-SG Details on http://radiosondy.info
KERNO2-14U24201172022-12-07 12:33:4249.9862-5.172361393119581Clb=3.8m/s t=-61.0C h=4.9% 403.30MHz Type=RS41-SG Details on http://radiosondy.info
KERNO2-14U24201172022-12-07 12:33:0649.9869-5.17391233119507Clb=5.6m/s t=-60.9C h=4.9% 403.30MHz Type=RS41-SG TxPastBurst=8h30m batt=2.7V Details on http://radiosondy.info
M7CWL-14U24201172022-12-07 12:32:4149.9874-5.174911393319455Clb=5.3m/s t=-60.9C h=5.0% 403.30MHz Type=RS41-SG Details on http://radiosondy.info
KERNO2-14U24201172022-12-07 12:32:2849.9877-5.175391193019433Clb=3.4m/s t=-60.8C h=5.0% 403.30MHz Type=RS41-SG Details on http://radiosondy.info
M7CWL-14U24201172022-12-07 12:32:0549.9882-5.176291292819391Clb=4.9m/s t=-60.5C h=4.9% 403.30MHz Type=RS41-SG Details on http://radiosondy.info
KERNO2-14U24201172022-12-07 12:31:5249.9884-5.176771332819366Clb=3.9m/s t=-60.4C h=4.9% 403.30MHz Type=RS41-SG Details on http://radiosondy.info
M7CWL-14U24201172022-12-07 12:31:3049.9889-5.177451362619326Clb=4.8m/s t=-60.2C h=4.6% 403.30MHz Type=RS41-SG batt=2.7V Details on http://radiosondy.info
KERNO2-14U24201172022-12-07 12:31:0449.9893-5.178051412619285Clb=5.2m/s t=-60.5C h=4.8% 403.30MHz Type=RS41-SG batt=2.6V Details on http://radiosondy.info
M7CWL-14U24201172022-12-07 12:30:4949.9896-5.178481313119258Clb=3.6m/s t=-60.4C h=4.8% 403.30MHz Type=RS41-SG Details on http://radiosondy.info
KERNO2-14U24201172022-12-07 12:30:2649.99-5.179191412819212Clb=4.8m/s t=-60.5C h=4.8% 403.30MHz Type=RS41-SG Details on http://radiosondy.info
KERNO2-14U24201172022-12-07 12:29:4749.9907-5.18051353019135Clb=5.6m/s t=-60.4C h=4.9% 403.30MHz Type=RS41-SG Details on http://radiosondy.info
KERNO2-14U24201172022-12-07 12:29:0749.9915-5.181891363019059Clb=4.7m/s t=-60.5C h=4.9% 403.30MHz Type=RS41-SG batt=2.6V Details on http://radiosondy.info
F1IEE-RSU24201172022-12-07 12:29:0049.992-5.182781413119008Clb=5.3m/s t=-60.6C h=1.3% p=-1.0hPa 403.300 MHz Type=RS41-SG ser=U2420117 Radiosonde
KERNO2-14U24201172022-12-07 12:28:2949.9923-5.183181412818983Clb=4.8m/s t=-60.6C h=4.9% 403.30MHz Type=RS41-SG Details on http://radiosondy.info
KERNO2-14U24201172022-12-07 12:27:4849.9931-5.184361263318906Clb=4.8m/s t=-61.0C h=5.0% 403.30MHz Type=RS41-SG Details on http://radiosondy.info
F1IEE-RSU24201172022-12-07 12:27:4449.9933-5.184721183318892Clb=3.5m/s t=-61.0C h=1.4% p=-1.0hPa 403.300 MHz Type=RS41-SG ser=U2420117 Radiosonde
KERNO2-14U24201172022-12-07 12:27:0549.994-5.185931243718825Clb=3.5m/s t=-60.7C h=5.0% 403.30MHz Type=RS41-SG TxPastBurst=8h30m batt=2.6V Details on http://radiosondy.info
KERNO2-14U24201172022-12-07 12:26:2749.995-5.187541263318745Clb=5.7m/s t=-60.4C h=4.9% 403.30MHz Type=RS41-SG Details on http://radiosondy.info
F1IEE-RSU24201172022-12-07 12:26:2449.995-5.187641253018739Clb=6.0m/s t=-60.4C h=1.3% p=-1.0hPa 403.300 MHz Type=RS41-SG ser=U2420117 Radiosonde
KERNO2-14U24201172022-12-07 12:25:4749.9957-5.189271273318666Clb=5.3m/s t=-59.8C h=4.8% 403.30MHz Type=RS41-SG Details on http://radiosondy.info
M7CWL-14U24201172022-12-07 12:25:1449.9963-5.190791293118593Clb=4.2m/s t=-59.3C h=4.6% 403.30MHz Type=RS41-SG Details on http://radiosondy.info
F1IEE-RSU24201172022-12-07 12:25:0849.9965-5.19121213718573Clb=4.3m/s t=-59.3C h=1.2% p=-1.0hPa 403.300 MHz Type=RS41-SG ser=U2420117 Radiosonde
M7CWL-14U24201172022-12-07 12:24:3349.9969-5.192361343018519Clb=4.6m/s t=-59.2C h=4.6% 403.30MHz Type=RS41-SG TxPastBurst=8h30m batt=2.6V Details on http://radiosondy.info
KERNO2-14U24201172022-12-07 12:24:2649.9971-5.192621263018503Clb=4.6m/s t=-59.0C h=4.6% 403.30MHz Type=RS41-SG Details on http://radiosondy.info
M7CWL-14U24201172022-12-07 12:24:0149.9976-5.193741263118446Clb=4.9m/s t=-58.7C h=4.5% 403.30MHz Type=RS41-SG Details on http://radiosondy.info
F1IEE-RSU24201172022-12-07 12:23:5949.9977-5.194071133518430Clb=4.5m/s t=-58.8C h=1.2% p=-1.0hPa 403.300 MHz Type=RS41-SG ser=U2420117 Radiosonde
KERNO2-14U24201172022-12-07 12:23:5749.9977-5.194211163518425Clb=5.7m/s t=-58.7C h=4.6% 403.30MHz Type=RS41-SG Details on http://radiosondy.info
M7CWL-14U24201172022-12-07 12:23:5349.9981-5.195381044418372Clb=4.7m/s t=-58.3C h=4.4% 403.30MHz Type=RS41-SG Details on http://radiosondy.info
F1IEE-RSU24201172022-12-07 12:23:3849.999-5.197491363118273Clb=4.6m/s t=-58.2C h=1.2% p=-1.0hPa 403.300 MHz Type=RS41-SG ser=U2420117 Radiosonde
KERNO2-14U24201172022-12-07 12:23:3649.999-5.197571373118268Clb=5.8m/s t=-58.1C h=4.4% 403.30MHz Type=RS41-SG Details on http://radiosondy.info
KERNO2-14U24201172022-12-07 12:23:1149.9998-5.199031213018191Clb=4.1m/s t=-57.8C h=4.3% 403.30MHz Type=RS41-SG Details on http://radiosondy.info
F1IEE-RSU24201172022-12-07 12:22:5650.0005-5.20041263018118Clb=4.6m/s t=-57.7C h=1.2% p=-1.0hPa 403.300 MHz Type=RS41-SG ser=U2420117 Radiosonde
KERNO2-14U24201172022-12-07 12:22:5250.0007-5.200681403318105Clb=4.2m/s t=-57.8C h=4.2% 403.30MHz Type=RS41-SG TxPastBurst=8h30m batt=2.7V Details on http://radiosondy.info
KERNO2-14U24201172022-12-07 12:22:4950.0017-5.201931544118030Clb=3.7m/s t=-58.7C h=4.4% 403.30MHz Type=RS41-SG Details on http://radiosondy.info
F1IEE-RSU24201172022-12-07 12:22:4550.0026-5.202851474817976Clb=5.2m/s t=-58.9C h=1.3% p=-1.0hPa 403.300 MHz Type=RS41-SG ser=U2420117 Radiosonde
KERNO2-14U24201172022-12-07 12:22:4350.0031-5.203381454817952Clb=5.3m/s t=-58.9C h=4.4% 403.30MHz Type=RS41-SG Details on http://radiosondy.info
KERNO2-14U24201172022-12-07 12:22:1250.0047-5.205141584817878Clb=4.0m/s t=-59.4C h=4.7% 403.30MHz Type=RS41-SG batt=2.7V Details on http://radiosondy.info
KERNO2-14U24201172022-12-07 12:21:4250.0385-5.268581292815256Clb=3.5m/s t=-58.1C h=4.8% 403.30MHz Type=RS41-SG batt=2.6V Details on http://radiosondy.info
M7CWL-14U24201172022-12-07 12:21:2950.0388-5.269061183015227Clb=4.6m/s t=-57.9C h=4.8% 403.30MHz Type=RS41-SG Details on http://radiosondy.info
KERNO2-14U24201172022-12-07 12:21:1050.039-5.270041233115180Clb=4.1m/s t=-57.8C h=4.6% 403.30MHz Type=RS41-SG Details on http://radiosondy.info
M7CWL-14U24201172022-12-07 12:20:5850.0392-5.27061243115158Clb=4.9m/s t=-57.7C h=4.6% 403.30MHz Type=RS41-SG Details on http://radiosondy.info
KERNO2-14U24201172022-12-07 12:20:3550.0396-5.271771183015112Clb=3.2m/s t=-57.6C h=4.6% 403.30MHz Type=RS41-SG Details on http://radiosondy.info
M7CWL-14U24201172022-12-07 12:20:2450.0398-5.272171373515096Clb=3.8m/s t=-57.7C h=4.7% 403.30MHz Type=RS41-SG TxPastBurst=8h30m batt=2.6V Details on http://radiosondy.info
KERNO2-14U24201172022-12-07 12:20:0050.0403-5.273211283115045Clb=4.7m/s t=-57.4C h=4.6% 403.30MHz Type=RS41-SG batt=2.6V Details on http://radiosondy.info
KERNO2-14U24201172022-12-07 12:19:2350.0411-5.274761303514975Clb=5.1m/s t=-57.0C h=4.5% 403.30MHz Type=RS41-SG Details on http://radiosondy.info
KERNO2-14U24201172022-12-07 12:18:4750.042-5.276451413714906Clb=2.3m/s t=-56.8C h=4.4% 403.30MHz Type=RS41-SG Details on http://radiosondy.info
KERNO2-14U24201172022-12-07 12:18:1150.0431-5.277961443714838Clb=4.5m/s t=-56.5C h=4.3% 403.30MHz Type=RS41-SG TxPastBurst=8h30m batt=2.6V Details on http://radiosondy.info
KERNO2-14U24201172022-12-07 12:17:4150.0443-5.279351493514765Clb=4.5m/s t=-56.5C h=4.4% 403.30MHz Type=RS41-SG Details on http://radiosondy.info
KERNO2-14U24201172022-12-07 12:17:0850.0453-5.280861343514690Clb=5.0m/s t=-56.9C h=4.4% 403.30MHz Type=RS41-SG Details on http://radiosondy.info
KERNO2-14U24201172022-12-07 12:16:3950.0462-5.282541263314618Clb=4.2m/s t=-57.4C h=4.5% 403.30MHz Type=RS41-SG batt=2.7V Details on http://radiosondy.info
KERNO2-14U24201172022-12-07 12:16:0950.0471-5.284011353714551Clb=4.8m/s t=-57.5C h=4.7% 403.30MHz Type=RS41-SG Details on http://radiosondy.info
M7CWL-14U24201172022-12-07 12:15:4850.0478-5.285381272814499Clb=4.6m/s t=-58.1C h=4.8% 403.30MHz Type=RS41-SG Details on http://radiosondy.info
KERNO2-14U24201172022-12-07 12:15:4050.048-5.285751202814481Clb=5.5m/s t=-58.2C h=4.8% 403.30MHz Type=RS41-SG Details on http://radiosondy.info
M7CWL-14U24201172022-12-07 12:15:2150.0483-5.286811203314435Clb=3.0m/s t=-58.0C h=4.8% 403.30MHz Type=RS41-SG Details on http://radiosondy.info
KERNO2-14U24201172022-12-07 12:15:1250.0484-5.28741153514414Clb=5.0m/s t=-57.9C h=4.9% 403.30MHz Type=RS41-SG batt=2.7V Details on http://radiosondy.info
M7CWL-14U24201172022-12-07 12:14:5450.0488-5.288621073314371Clb=4.0m/s t=-57.6C h=4.9% 403.30MHz Type=RS41-SG batt=2.7V Details on http://radiosondy.info
KERNO2-14U24201172022-12-07 12:14:4250.049-5.28941103314347Clb=4.6m/s t=-57.8C h=4.8% 403.30MHz Type=RS41-SG Details on http://radiosondy.info
M7CWL-14U24201172022-12-07 12:14:2350.0492-5.29045983114311Clb=2.5m/s t=-57.6C h=4.8% 403.30MHz Type=RS41-SG Details on http://radiosondy.info
KERNO2-14U24201172022-12-07 12:14:0750.0494-5.291611133514274Clb=4.7m/s t=-57.8C h=5.0% 403.30MHz Type=RS41-SG Details on http://radiosondy.info
KERNO2-14U24201172022-12-07 12:13:3650.0501-5.293571303514210Clb=3.7m/s t=-58.2C h=5.0% 403.30MHz Type=RS41-SG TxPastBurst=8h30m batt=2.6V Details on http://radiosondy.info
KERNO2-14U24201172022-12-07 12:13:0050.0508-5.29541162814149Clb=4.1m/s t=-58.8C h=5.4% 403.30MHz Type=RS41-SG Details on http://radiosondy.info
KERNO2-14U24201172022-12-07 12:12:2250.0515-5.296791292814082Clb=4.2m/s t=-58.5C h=5.3% 403.30MHz Type=RS41-SG Details on http://radiosondy.info
KERNO2-14U24201172022-12-07 12:11:4750.0521-5.298131243014017Clb=4.0m/s t=-58.3C h=5.3% 403.30MHz Type=RS41-SG batt=2.6V Details on http://radiosondy.info
KERNO2-14U24201172022-12-07 12:11:1150.0527-5.299731233013954Clb=3.9m/s t=-58.0C h=5.2% 403.30MHz Type=RS41-SG Details on http://radiosondy.info
KERNO2-14U24201172022-12-07 12:10:3850.0534-5.301211152813886Clb=3.8m/s t=-58.4C h=5.4% 403.30MHz Type=RS41-SG Details on http://radiosondy.info
KERNO2-14U24201172022-12-07 12:09:5650.0541-5.302621343113819Clb=4.4m/s t=-58.3C h=5.3% 403.30MHz Type=RS41-SG batt=2.6V Details on http://radiosondy.info
M7CWL-14U24201172022-12-07 12:09:2250.055-5.303661492613757Clb=3.6m/s t=-58.6C h=5.4% 403.30MHz Type=RS41-SG Details on http://radiosondy.info
KERNO2-14U24201172022-12-07 12:09:2150.0551-5.303721432613753Clb=4.0m/s t=-58.6C h=5.4% 403.30MHz Type=RS41-SG Details on http://radiosondy.info
M7CWL-14U24201172022-12-07 12:08:4950.0558-5.304521322413695Clb=4.5m/s t=-59.0C h=5.7% 403.30MHz Type=RS41-SG batt=2.7V Details on http://radiosondy.info
KERNO2-14U24201172022-12-07 12:08:4550.0559-5.304671432413686Clb=3.4m/s t=-59.2C h=5.7% 403.30MHz Type=RS41-SG Details on http://radiosondy.info
M7CWL-14U24201172022-12-07 12:08:1750.0565-5.30541292213634Clb=4.0m/s t=-59.1C h=5.8% 403.30MHz Type=RS41-SG Details on http://radiosondy.info
KERNO2-14U24201172022-12-07 12:08:0950.0566-5.305591462213622Clb=4.4m/s t=-59.1C h=5.8% 403.30MHz Type=RS41-SG TxPastBurst=8h30m batt=2.6V Details on http://radiosondy.info
M7CWL-14U24201172022-12-07 12:07:4350.0571-5.306241483913570Clb=3.5m/s t=-58.7C h=5.7% 403.30MHz Type=RS41-SG Details on http://radiosondy.info
KERNO2-14U24201172022-12-07 12:07:3450.0573-5.306321591913551Clb=4.9m/s t=-58.8C h=5.7% 403.30MHz Type=RS41-SG Details on http://radiosondy.info
KERNO2-14U24201172022-12-07 12:07:0150.058-5.306761792813480Clb=4.5m/s t=-58.7C h=5.4% 403.30MHz Type=RS41-SG Details on http://radiosondy.info
KERNO2-14U24201172022-12-07 12:06:2750.059-5.307011853513411Clb=3.7m/s t=-58.5C h=5.8% 403.30MHz Type=RS41-SG batt=2.7V Details on http://radiosondy.info
KERNO2-14U24201172022-12-07 12:05:5250.0603-5.30781433113330Clb=4.6m/s t=-57.9C h=5.5% 403.30MHz Type=RS41-SG Details on http://radiosondy.info
KERNO2-14U24201172022-12-07 12:05:1850.0614-5.308751543113255Clb=3.5m/s t=-57.3C h=5.4% 403.30MHz Type=RS41-SG Details on http://radiosondy.info
KERNO2-14U24201172022-12-07 12:04:4550.0625-5.309761444113181Clb=4.2m/s t=-57.5C h=5.5% 403.30MHz Type=RS41-SG batt=2.7V Details on http://radiosondy.info
KERNO2-14U24201172022-12-07 12:04:0550.0639-5.311431474313106Clb=5.0m/s t=-57.9C h=5.8% 403.30MHz Type=RS41-SG Details on http://radiosondy.info
KERNO2-14U24201172022-12-07 12:03:4850.0653-5.312781414413036Clb=3.9m/s t=-58.5C h=6.1% 403.30MHz Type=RS41-SG Details on http://radiosondy.info
KERNO2-14U24201172022-12-07 12:03:4050.0667-5.314491364112972Clb=3.4m/s t=-58.5C h=6.3% 403.30MHz Type=RS41-SG TxPastBurst=8h30m batt=2.7V Details on http://radiosondy.info
M7CWL-14U24201172022-12-07 12:03:3850.0668-5.314621414112968Clb=4.1m/s t=-58.5C h=6.3% 403.30MHz Type=RS41-SG TxPastBurst=8h30m batt=2.6V Details on http://radiosondy.info
KERNO2-14U24201172022-12-07 12:03:2450.0681-5.315811474112905Clb=3.4m/s t=-58.7C h=6.4% 403.30MHz Type=RS41-SG Details on http://radiosondy.info
M7CWL-14U24201172022-12-07 12:03:0450.0692-5.317461333712840Clb=3.7m/s t=-58.4C h=6.4% 403.30MHz Type=RS41-SG Details on http://radiosondy.info
KERNO2-14U24201172022-12-07 12:03:0350.0693-5.317581323712837Clb=3.2m/s t=-58.4C h=6.3% 403.30MHz Type=RS41-SG Details on http://radiosondy.info
KERNO2-14U24201172022-12-07 12:02:5350.077-5.328241232612295Clb=4.5m/s t=-57.7C h=8.0% 403.30MHz Type=RS41-SG Details on http://radiosondy.info
KERNO2-14U24201172022-12-07 12:02:5250.0774-5.329771062612229Clb=4.7m/s t=-57.4C h=8.3% 403.30MHz Type=RS41-SG Details on http://radiosondy.info
M7CWL-14U24201172022-12-07 12:02:5150.0774-5.330181042612211Clb=3.9m/s t=-57.4C h=8.4% 403.30MHz Type=RS41-SG Details on http://radiosondy.info
KERNO2-14U24201172022-12-07 12:02:5050.0775-5.33137901912162Clb=3.9m/s t=-57.7C h=9.3% 403.30MHz Type=RS41-SG batt=2.7V Details on http://radiosondy.info
KERNO2-14U24201172022-12-07 12:02:4950.0776-5.332491011912097Clb=3.4m/s t=-57.9C h=10.1% 403.30MHz Type=RS41-SG Details on http://radiosondy.info
KERNO2-14U24201172022-12-07 12:02:3450.0781-5.333161523012025Clb=3.1m/s t=-60.0C h=13.1% 403.30MHz Type=RS41-SG Details on http://radiosondy.info
M7CWL-14U24201172022-12-07 12:02:3250.0782-5.333211492812021Clb=3.9m/s t=-60.0C h=13.2% 403.30MHz Type=RS41-SG Details on http://radiosondy.info
KERNO2-14U24201172022-12-07 12:02:0850.0793-5.333711664411964Clb=3.8m/s t=-60.6C h=13.8% 403.30MHz Type=RS41-SG batt=2.7V Details on http://radiosondy.info
KERNO2-14U24201172022-12-07 12:01:5950.0809-5.33471584811897Clb=3.7m/s t=-60.5C h=13.9% 403.30MHz Type=RS41-SG Details on http://radiosondy.info
KERNO2-14U24201172022-12-07 12:01:5850.0828-5.336211545011825Clb=3.8m/s t=-60.1C h=13.8% 403.30MHz Type=RS41-SG Details on http://radiosondy.info
KERNO2-14U24201172022-12-07 12:01:5550.0844-5.337951434411760Clb=3.4m/s t=-59.8C h=13.9% 403.30MHz Type=RS41-SG TxPastBurst=8h30m batt=2.7V Details on http://radiosondy.info
KERNO2-14U24201172022-12-07 12:01:5250.086-5.339921354111688Clb=4.4m/s t=-59.5C h=13.9% 403.30MHz Type=RS41-SG Details on http://radiosondy.info
KERNO2-14U24201172022-12-07 12:01:5150.0871-5.341581303111630Clb=3.4m/s t=-59.3C h=14.1% 403.30MHz Type=RS41-SG Details on http://radiosondy.info
KERNO2-14U24201172022-12-07 12:01:4950.0878-5.34321172811564Clb=3.9m/s t=-58.8C h=13.7% 403.30MHz Type=RS41-SG batt=2.7V Details on http://radiosondy.info
KERNO2-14U24201172022-12-07 12:01:4850.0885-5.344931133111492Clb=4.6m/s t=-58.5C h=14.2% 403.30MHz Type=RS41-SG Details on http://radiosondy.info
KERNO2-14U24201172022-12-07 12:01:4650.0892-5.34661292411425Clb=5.2m/s t=-58.3C h=14.1% 403.30MHz Type=RS41-SG Details on http://radiosondy.info
KERNO2-14U24201172022-12-07 12:01:4550.0898-5.347591231711361Clb=2.3m/s t=-58.0C h=14.2% 403.30MHz Type=RS41-SG batt=2.7V Details on http://radiosondy.info
KERNO2-14U24201172022-12-07 12:01:3750.0902-5.348291251511296Clb=4.4m/s t=-57.9C h=15.3% 403.30MHz Type=RS41-SG Details on http://radiosondy.info
KERNO2-14U24201172022-12-07 12:01:1350.0906-5.348841401511233Clb=4.2m/s t=-57.5C h=16.0% 403.30MHz Type=RS41-SG Details on http://radiosondy.info
KERNO2-14U24201172022-12-07 12:00:4050.0912-5.349191941511167Clb=6.2m/s t=-57.7C h=17.1% 403.30MHz Type=RS41-SG TxPastBurst=8h30m batt=2.7V Details on http://radiosondy.info
KERNO2-14U24201172022-12-07 12:00:0750.0917-5.348892132611093Clb=3.7m/s t=-57.7C h=18.0% calibration 98% 403.30MHz Type=RS41-SG Details on http://radiosondy.info
KERNO2-14U24201172022-12-07 11:59:3450.0927-5.348361913311023Clb=2.7m/s t=-57.8C h=19.1% calibration 96% 403.30MHz Type=RS41-SG Details on http://radiosondy.info
KERNO2-14U24201172022-12-07 11:58:5850.094-5.347551994110959Clb=4.7m/s t=-57.5C calibration 96% 403.30MHz Type=RS41-SG batt=2.7V Details on http://radiosondy.info
KERNO2-14U24201172022-12-07 11:58:2550.0955-5.34671973710892Clb=3.7m/s t=-57.9C calibration 94% 403.30MHz Type=RS41-SG Details on http://radiosondy.info
KERNO2-14U24201172022-12-07 11:57:4850.097-5.346181883110826Clb=4.1m/s t=-57.8C calibration 92% 403.30MHz Type=RS41-SG Details on http://radiosondy.info
KERNO2-14U24201172022-12-07 11:57:1150.0982-5.345821873010759Clb=3.1m/s t=-57.7C calibration 88% 403.30MHz Type=RS41-SG batt=2.7V Details on http://radiosondy.info
M7CWL-14U24201172022-12-07 11:56:5650.0986-5.345791913110733Clb=3.2m/s t=-57.5C h=19.9% 403.30MHz Type=RS41-SG batt=2.7V Details on http://radiosondy.info
KERNO2-14U24201172022-12-07 11:56:3550.0994-5.345671823010695Clb=4.9m/s calibration 72% 403.30MHz Type=RS41-SG Details on http://radiosondy.info
M7CWL-14U24201172022-12-07 11:56:2350.0998-5.345741773010671Clb=3.0m/s t=-57.7C h=19.8% 403.30MHz Type=RS41-SG Details on http://radiosondy.info
KERNO2-14U24201172022-12-07 11:56:0450.1006-5.34581733110628Clb=3.6m/s calibration 60% 403.30MHz Type=RS41-SG Details on http://radiosondy.info
M7CWL-14U24201172022-12-07 11:55:5550.1009-5.345821783110613Clb=4.5m/s t=-57.4C h=19.5% 403.30MHz Type=RS41-SG Details on http://radiosondy.info
KERNO2-14U24201172022-12-07 11:55:3350.1018-5.345991783110562Clb=2.9m/s calibration 45% 403.30MHz Type=RS41-SG batt=2.7V Details on http://radiosondy.info
M7CWL-14U24201172022-12-07 11:55:2650.1021-5.346041711910550Clb=2.8m/s t=-57.1C h=19.2% 403.30MHz Type=RS41-SG batt=2.7V Details on http://radiosondy.info
KERNO2-14U24201172022-12-07 11:55:0350.103-5.346381643010499Clb=3.4m/s calibration 31% 403.30MHz Type=RS41-SG Details on http://radiosondy.info
KERNO2-14U24201172022-12-07 11:54:3550.1042-5.346821672610440Clb=4.2m/s calibration 15% Type=RS41-SG Details on http://radiosondy.info
KERNO2-14U24201172022-12-07 11:54:0350.1051-5.347321612010381Clb=4.4m/s calibration 1% Type=RS41 batt=2.7V Details on http://radiosondy.info
KERNO2-14U24201172022-12-07 11:53:3550.1058-5.34781721910327Clb=4.5m/s calibration 84% 403.30MHz Type=RS41-SG Details on http://radiosondy.info
KERNO2-14U24201172022-12-07 11:53:0550.1065-5.348141621710261Clb=4.5m/s calibration 68% 403.30MHz Type=RS41-SG Details on http://radiosondy.info
M7CWL-14U24201172022-12-07 11:51:3150.1081-5.348322101310005Clb=3.6m/s t=-54.6C h=17.8% 403.30MHz Type=RS41-SG Details on http://radiosondy.info
M7CWL-14U24201172022-12-07 11:51:1850.1182-5.34146181269105Clb=3.5m/s t=-48.9C h=16.7% 403.30MHz Type=RS41-SG Details on http://radiosondy.info
M7CWL-14U24201172022-12-07 11:50:1650.1266-5.34703157198545Clb=3.9m/s t=-46.6C h=27.5% 403.30MHz Type=RS41-SG batt=2.7V Details on http://radiosondy.info
M7CWL-14U24201172022-12-07 11:49:5050.1271-5.34775114208477Clb=6.6m/s t=-46.1C h=27.7% 403.30MHz Type=RS41-SG Details on http://radiosondy.info
M7CWL-14U24201172022-12-07 11:49:2550.1278-5.34786146248396Clb=6.9m/s t=-45.5C h=27.6% 403.30MHz Type=RS41-SG Details on http://radiosondy.info
M7CWL-14U24201172022-12-07 11:48:5650.1287-5.34787213318308Clb=5.8m/s t=-45.2C h=30.1% 403.30MHz Type=RS41-SG TxPastBurst=8h30m batt=2.7V Details on http://radiosondy.info
M7CWL-14U24201172022-12-07 11:44:4150.1401-5.35081183307737Clb=3.9m/s t=-41.7C h=42.9% 403.30MHz Type=RS41-SG Details on http://radiosondy.info
M7CWL-14U24201172022-12-07 11:44:1150.1412-5.35115167287679Clb=3.3m/s t=-41.2C h=47.0% 403.30MHz Type=RS41-SG Details on http://radiosondy.info
M7CWL-14U24201172022-12-07 11:44:0150.1422-5.35145179287621Clb=3.1m/s t=-40.7C h=49.5% 403.30MHz Type=RS41-SG batt=2.9V Details on http://radiosondy.info
M7CWL-14U24201172022-12-07 11:43:5750.1432-5.35161180247560Clb=3.8m/s t=-40.2C h=49.0% 403.30MHz Type=RS41-SG Details on http://radiosondy.info
M7CWL-14U24201172022-12-07 11:42:1350.1517-5.35195181266959Clb=6.1m/s t=-35.1C h=51.1% 403.30MHz Type=RS41-SG Details on http://radiosondy.info
M7CWL-14U24201172022-12-07 11:41:4650.1526-5.35215182206869Clb=3.5m/s t=-34.3C h=50.9% 403.30MHz Type=RS41-SG batt=2.9V Details on http://radiosondy.info
M7CWL-14U24201172022-12-07 11:41:2250.1533-5.35248154206804Clb=4.4m/s t=-33.7C h=52.6% 403.30MHz Type=RS41-SG Details on http://radiosondy.info
M7CWL-14U24201172022-12-07 11:40:5550.1541-5.35238203196730Clb=4.1m/s t=-33.1C h=51.7% 403.30MHz Type=RS41-SG Details on http://radiosondy.info
M7CWL-14U24201172022-12-07 11:36:5850.1626-5.35333155286081Clb=4.5m/s t=-28.7C h=51.3% 403.30MHz Type=RS41-SG TxPastBurst=8h30m batt=2.9V Details on http://radiosondy.info
M7CWL-14U24201172022-12-07 11:36:3050.1636-5.35325175176002Clb=6.4m/s t=-28.2C h=52.1% 403.30MHz Type=RS41-SG Details on http://radiosondy.info
M7CWL-14U24201172022-12-07 11:36:0150.1641-5.35352143265945Clb=3.9m/s t=-27.9C h=54.0% 403.30MHz Type=RS41-SG Details on http://radiosondy.info
M7CWL-14U24201172022-12-07 11:35:4650.165-5.35338188225866Clb=4.6m/s t=-27.3C h=55.9% 403.30MHz Type=RS41-SG batt=2.9V Details on http://radiosondy.info
M7CWL-14U24201172022-12-07 11:34:2650.1724-5.35145225355226Clb=3.4m/s t=-22.1C h=48.0% 403.30MHz Type=RS41-SG Details on http://radiosondy.info
M7CWL-14U24201172022-12-07 11:34:0050.1737-5.35071194265140Clb=3.7m/s t=-21.2C h=44.0% 403.30MHz Type=RS41-SG Details on http://radiosondy.info
M7CWL-14U24201172022-12-07 11:33:3550.1747-5.35076181335061Clb=3.4m/s t=-20.5C h=41.8% 403.30MHz Type=RS41-SG batt=2.9V Details on http://radiosondy.info
M7CWL-14U24201172022-12-07 11:33:1250.1759-5.35086199284988Clb=5.2m/s t=-19.8C h=46.3% 403.30MHz Type=RS41-SG Details on http://radiosondy.info
M7CWL-14U24201172022-12-07 11:30:3250.184-5.34987164204345Clb=4.9m/s t=-15.3C h=16.3% 403.30MHz Type=RS41-SG Details on http://radiosondy.info
M7CWL-14U24201172022-12-07 11:30:1750.1847-5.34978207284284Clb=3.9m/s t=-14.7C h=15.7% 403.30MHz Type=RS41-SG TxPastBurst=8h30m batt=2.9V Details on http://radiosondy.info
M7CWL-14U24201172022-12-07 11:30:0250.1857-5.34961199374208Clb=6.6m/s t=-14.0C h=15.1% 403.30MHz Type=RS41-SG Details on http://radiosondy.info
M7CWL-14U24201172022-12-07 11:29:5450.1872-5.3495175174130Clb=4.1m/s t=-13.3C h=14.6% 403.30MHz Type=RS41-SG Details on http://radiosondy.info
M7CWL-14U24201172022-12-07 11:27:3250.1952-5.34525171223514Clb=4.2m/s t=-9.9C h=26.5% 403.30MHz Type=RS41-SG batt=2.9V Details on http://radiosondy.info
M7CWL-14U24201172022-12-07 11:27:1750.1959-5.34471231153447Clb=3.8m/s t=-9.4C h=25.1% 403.30MHz Type=RS41-SG Details on http://radiosondy.info
M7CWL-14U24201172022-12-07 11:27:0250.1963-5.34423180223383Clb=4.5m/s t=-8.9C h=24.7% 403.30MHz Type=RS41-SG Details on http://radiosondy.info
M7CWL-14U24201172022-12-07 11:26:4750.1969-5.34352254243314Clb=3.9m/s t=-8.5C h=24.4% 403.30MHz Type=RS41-SG batt=2.9V Details on http://radiosondy.info
M7CWL-14U24201172022-12-07 11:24:3850.2019-5.3434202222617Clb=5.3m/s t=-3.6C h=11.3% 403.30MHz Type=RS41-SG Details on http://radiosondy.info
M7CWL-14U24201172022-12-07 11:24:1850.2027-5.34342188222538Clb=5.3m/s t=-3.0C h=10.4% 403.30MHz Type=RS41-SG Details on http://radiosondy.info
M7CWL-14U24201172022-12-07 11:24:0150.2034-5.34384151202462Clb=6.3m/s t=-2.6C h=7.0% 403.30MHz Type=RS41-SG TxPastBurst=8h30m batt=2.9V Details on http://radiosondy.info
M7CWL-14U24201172022-12-07 11:23:4650.2042-5.34374181112376Clb=4.8m/s t=-2.6C h=9.0% 403.30MHz Type=RS41-SG Details on http://radiosondy.info
M7CWL-14U24201172022-12-07 11:21:3150.2089-5.34318127151751Clb=4.2m/s t=-3.6C h=29.0% 403.30MHz Type=RS41-SG Details on http://radiosondy.info
M7CWL-14U24201172022-12-07 11:21:1650.2093-5.34368148191673Clb=4.6m/s t=-4.1C h=42.7% 403.30MHz Type=RS41-SG batt=2.9V Details on http://radiosondy.info
M7CWL-14U24201172022-12-07 11:21:0250.21-5.34359227151596Clb=4.2m/s t=-4.3C h=57.7% 403.30MHz Type=RS41-SG Details on http://radiosondy.info
M7CWL-14U24201172022-12-07 11:20:5050.2104-5.34308292171515Clb=4.2m/s t=-3.8C h=59.1% 403.30MHz Type=RS41-SG Details on http://radiosondy.info
M7CWL-14U24201172022-12-07 11:18:3950.2146-5.3362723731895Clb=3.9m/s calibration 96% 403.30MHz Type=RS41-SG batt=2.9V Details on http://radiosondy.info
M7CWL-14U24201172022-12-07 11:18:2450.2153-5.3349524522812Clb=5.7m/s calibration 66% Type=RS41-SG Details on http://radiosondy.info
M7CWL-14U24201172022-12-07 11:18:0950.2157-5.3337922924727Clb=5.0m/s calibration 37% Type=RS41 Details on http://radiosondy.info
M7CWL-14U24201172022-12-07 11:17:5450.2162-5.3326221624648Clb=5.4m/s calibration 7% Type=RS41 batt=2.9V Details on http://radiosondy.info